<?xml version="1.0" encoding="UTF-8" standalone="no" ?>
<gpx xmlns="http://www.topografix.com/GPX/1/1" xmlns:xsi="http://www.w3.org/2001/XMLSchema-instance" xsi:schemaLocation="http://www.topografix.com/GPX/1/1 http://www.topografix.com/GPX/1/1/gpx.xsd" version="1.1" creator="VisuGPX - https://www.visugpx.com">
  <metadata>
    <name>83-M-Fox Amphoux</name>
    <desc><![CDATA[83-M-Fox Amphoux : la chapelle St Ulfar
2019-12-04 - NB : autorisation pour propriété privée au Grand Pouvet]]></desc>
  </metadata>
  <trk>
    <name><![CDATA[2019-12-04-M-Fox Amphoux]]></name>
    <trkseg>
      <trkpt lat="43.58067" lon="6.10564">
        <ele>473.2</ele>
        <time>2019-12-04T13:07:23Z</time>
      </trkpt>
      <trkpt lat="43.58066" lon="6.10564">
        <ele>473.1</ele>
        <time>2019-12-04T13:07:24Z</time>
      </trkpt>
      <trkpt lat="43.58058" lon="6.10573">
        <ele>470.9</ele>
        <time>2019-12-04T13:08:35Z</time>
      </trkpt>
      <trkpt lat="43.58065" lon="6.10563">
        <ele>471.5</ele>
        <time>2019-12-04T13:09:03Z</time>
      </trkpt>
      <trkpt lat="43.58074" lon="6.10566">
        <ele>471.3</ele>
        <time>2019-12-04T13:09:24Z</time>
      </trkpt>
      <trkpt lat="43.58067" lon="6.10557">
        <ele>473.5</ele>
        <time>2019-12-04T13:09:55Z</time>
      </trkpt>
      <trkpt lat="43.58076" lon="6.10553">
        <ele>472.2</ele>
        <time>2019-12-04T13:13:24Z</time>
      </trkpt>
      <trkpt lat="43.58086" lon="6.10546">
        <ele>472.1</ele>
        <time>2019-12-04T13:13:32Z</time>
      </trkpt>
      <trkpt lat="43.58093" lon="6.10538">
        <ele>472.4</ele>
        <time>2019-12-04T13:13:42Z</time>
      </trkpt>
      <trkpt lat="43.58101" lon="6.10529">
        <ele>472.6</ele>
        <time>2019-12-04T13:13:50Z</time>
      </trkpt>
      <trkpt lat="43.5811" lon="6.10528">
        <ele>473.1</ele>
        <time>2019-12-04T13:14:12Z</time>
      </trkpt>
      <trkpt lat="43.5812" lon="6.10529">
        <ele>473.2</ele>
        <time>2019-12-04T13:14:22Z</time>
      </trkpt>
      <trkpt lat="43.5813" lon="6.10528">
        <ele>473.3</ele>
        <time>2019-12-04T13:14:31Z</time>
      </trkpt>
      <trkpt lat="43.58139" lon="6.10524">
        <ele>473.5</ele>
        <time>2019-12-04T13:14:38Z</time>
      </trkpt>
      <trkpt lat="43.58148" lon="6.10521">
        <ele>473.6</ele>
        <time>2019-12-04T13:14:45Z</time>
      </trkpt>
      <trkpt lat="43.58158" lon="6.10518">
        <ele>474</ele>
        <time>2019-12-04T13:14:53Z</time>
      </trkpt>
      <trkpt lat="43.58166" lon="6.10514">
        <ele>474.5</ele>
        <time>2019-12-04T13:15:00Z</time>
      </trkpt>
      <trkpt lat="43.58175" lon="6.1051">
        <ele>475.2</ele>
        <time>2019-12-04T13:15:10Z</time>
      </trkpt>
      <trkpt lat="43.58183" lon="6.10504">
        <ele>475.5</ele>
        <time>2019-12-04T13:15:17Z</time>
      </trkpt>
      <trkpt lat="43.58192" lon="6.10501">
        <ele>475.9</ele>
        <time>2019-12-04T13:15:26Z</time>
      </trkpt>
      <trkpt lat="43.58201" lon="6.10499">
        <ele>476.1</ele>
        <time>2019-12-04T13:15:32Z</time>
      </trkpt>
      <trkpt lat="43.5821" lon="6.10501">
        <ele>477</ele>
        <time>2019-12-04T13:15:42Z</time>
      </trkpt>
      <trkpt lat="43.5822" lon="6.10499">
        <ele>477.4</ele>
        <time>2019-12-04T13:15:51Z</time>
      </trkpt>
      <trkpt lat="43.5823" lon="6.10498">
        <ele>477.6</ele>
        <time>2019-12-04T13:16:01Z</time>
      </trkpt>
      <trkpt lat="43.5824" lon="6.105">
        <ele>478</ele>
        <time>2019-12-04T13:16:10Z</time>
      </trkpt>
      <trkpt lat="43.58249" lon="6.105">
        <ele>478.1</ele>
        <time>2019-12-04T13:16:17Z</time>
      </trkpt>
      <trkpt lat="43.58259" lon="6.10495">
        <ele>478.3</ele>
        <time>2019-12-04T13:16:24Z</time>
      </trkpt>
      <trkpt lat="43.58267" lon="6.10489">
        <ele>478.6</ele>
        <time>2019-12-04T13:16:33Z</time>
      </trkpt>
      <trkpt lat="43.58275" lon="6.10481">
        <ele>479.4</ele>
        <time>2019-12-04T13:16:42Z</time>
      </trkpt>
      <trkpt lat="43.58283" lon="6.10476">
        <ele>479.9</ele>
        <time>2019-12-04T13:16:50Z</time>
      </trkpt>
      <trkpt lat="43.58293" lon="6.1047">
        <ele>480.3</ele>
        <time>2019-12-04T13:16:57Z</time>
      </trkpt>
      <trkpt lat="43.58303" lon="6.10472">
        <ele>481</ele>
        <time>2019-12-04T13:17:07Z</time>
      </trkpt>
      <trkpt lat="43.58306" lon="6.10484">
        <ele>483.4</ele>
        <time>2019-12-04T13:17:23Z</time>
      </trkpt>
      <trkpt lat="43.58312" lon="6.10495">
        <ele>485</ele>
        <time>2019-12-04T13:17:33Z</time>
      </trkpt>
      <trkpt lat="43.58318" lon="6.10503">
        <ele>487.4</ele>
        <time>2019-12-04T13:17:47Z</time>
      </trkpt>
      <trkpt lat="43.58328" lon="6.10498">
        <ele>489</ele>
        <time>2019-12-04T13:17:57Z</time>
      </trkpt>
      <trkpt lat="43.58336" lon="6.10491">
        <ele>490.7</ele>
        <time>2019-12-04T13:18:14Z</time>
      </trkpt>
      <trkpt lat="43.58342" lon="6.10482">
        <ele>491.4</ele>
        <time>2019-12-04T13:18:25Z</time>
      </trkpt>
      <trkpt lat="43.5835" lon="6.10475">
        <ele>492.1</ele>
        <time>2019-12-04T13:18:34Z</time>
      </trkpt>
      <trkpt lat="43.58359" lon="6.10468">
        <ele>492.5</ele>
        <time>2019-12-04T13:18:41Z</time>
      </trkpt>
      <trkpt lat="43.58365" lon="6.10458">
        <ele>492.9</ele>
        <time>2019-12-04T13:18:50Z</time>
      </trkpt>
      <trkpt lat="43.58372" lon="6.10449">
        <ele>493.2</ele>
        <time>2019-12-04T13:18:58Z</time>
      </trkpt>
      <trkpt lat="43.5838" lon="6.10442">
        <ele>493.8</ele>
        <time>2019-12-04T13:19:07Z</time>
      </trkpt>
      <trkpt lat="43.58389" lon="6.10436">
        <ele>494.4</ele>
        <time>2019-12-04T13:19:16Z</time>
      </trkpt>
      <trkpt lat="43.58397" lon="6.1043">
        <ele>495.1</ele>
        <time>2019-12-04T13:19:24Z</time>
      </trkpt>
      <trkpt lat="43.58405" lon="6.10421">
        <ele>495.9</ele>
        <time>2019-12-04T13:19:33Z</time>
      </trkpt>
      <trkpt lat="43.58412" lon="6.10413">
        <ele>496.6</ele>
        <time>2019-12-04T13:19:40Z</time>
      </trkpt>
      <trkpt lat="43.58419" lon="6.10405">
        <ele>497.4</ele>
        <time>2019-12-04T13:19:48Z</time>
      </trkpt>
      <trkpt lat="43.58427" lon="6.10398">
        <ele>498.2</ele>
        <time>2019-12-04T13:19:57Z</time>
      </trkpt>
      <trkpt lat="43.58436" lon="6.10392">
        <ele>499</ele>
        <time>2019-12-04T13:20:06Z</time>
      </trkpt>
      <trkpt lat="43.58444" lon="6.10387">
        <ele>499.7</ele>
        <time>2019-12-04T13:20:16Z</time>
      </trkpt>
      <trkpt lat="43.58453" lon="6.10382">
        <ele>500.4</ele>
        <time>2019-12-04T13:20:26Z</time>
      </trkpt>
      <trkpt lat="43.58462" lon="6.10379">
        <ele>501.2</ele>
        <time>2019-12-04T13:20:34Z</time>
      </trkpt>
      <trkpt lat="43.58472" lon="6.10378">
        <ele>501.9</ele>
        <time>2019-12-04T13:20:43Z</time>
      </trkpt>
      <trkpt lat="43.58481" lon="6.10373">
        <ele>502.4</ele>
        <time>2019-12-04T13:20:51Z</time>
      </trkpt>
      <trkpt lat="43.58491" lon="6.10368">
        <ele>503.1</ele>
        <time>2019-12-04T13:21:00Z</time>
      </trkpt>
      <trkpt lat="43.585" lon="6.10365">
        <ele>503.9</ele>
        <time>2019-12-04T13:21:09Z</time>
      </trkpt>
      <trkpt lat="43.58509" lon="6.1036">
        <ele>504.3</ele>
        <time>2019-12-04T13:21:17Z</time>
      </trkpt>
      <trkpt lat="43.58518" lon="6.10354">
        <ele>504.8</ele>
        <time>2019-12-04T13:21:26Z</time>
      </trkpt>
      <trkpt lat="43.58509" lon="6.1036">
        <ele>505.4</ele>
        <time>2019-12-04T13:21:43Z</time>
      </trkpt>
      <trkpt lat="43.58516" lon="6.10351">
        <ele>504.8</ele>
        <time>2019-12-04T13:24:00Z</time>
      </trkpt>
      <trkpt lat="43.58518" lon="6.10337">
        <ele>504</ele>
        <time>2019-12-04T13:24:20Z</time>
      </trkpt>
      <trkpt lat="43.58523" lon="6.10347">
        <ele>505</ele>
        <time>2019-12-04T13:26:02Z</time>
      </trkpt>
      <trkpt lat="43.58533" lon="6.10346">
        <ele>505</ele>
        <time>2019-12-04T13:26:09Z</time>
      </trkpt>
      <trkpt lat="43.58542" lon="6.10344">
        <ele>505.3</ele>
        <time>2019-12-04T13:26:19Z</time>
      </trkpt>
      <trkpt lat="43.58551" lon="6.10339">
        <ele>506</ele>
        <time>2019-12-04T13:26:30Z</time>
      </trkpt>
      <trkpt lat="43.5856" lon="6.10336">
        <ele>506.6</ele>
        <time>2019-12-04T13:26:39Z</time>
      </trkpt>
      <trkpt lat="43.5857" lon="6.10333">
        <ele>507.6</ele>
        <time>2019-12-04T13:26:51Z</time>
      </trkpt>
      <trkpt lat="43.58579" lon="6.10329">
        <ele>508.4</ele>
        <time>2019-12-04T13:27:02Z</time>
      </trkpt>
      <trkpt lat="43.58588" lon="6.10324">
        <ele>509.6</ele>
        <time>2019-12-04T13:27:12Z</time>
      </trkpt>
      <trkpt lat="43.58596" lon="6.10318">
        <ele>510.5</ele>
        <time>2019-12-04T13:27:20Z</time>
      </trkpt>
      <trkpt lat="43.58606" lon="6.10314">
        <ele>511.8</ele>
        <time>2019-12-04T13:27:29Z</time>
      </trkpt>
      <trkpt lat="43.58615" lon="6.1031">
        <ele>513.1</ele>
        <time>2019-12-04T13:27:39Z</time>
      </trkpt>
      <trkpt lat="43.58624" lon="6.10307">
        <ele>514.1</ele>
        <time>2019-12-04T13:27:50Z</time>
      </trkpt>
      <trkpt lat="43.58634" lon="6.10306">
        <ele>515.4</ele>
        <time>2019-12-04T13:28:01Z</time>
      </trkpt>
      <trkpt lat="43.58642" lon="6.10299">
        <ele>516.7</ele>
        <time>2019-12-04T13:28:09Z</time>
      </trkpt>
      <trkpt lat="43.5865" lon="6.10295">
        <ele>518.2</ele>
        <time>2019-12-04T13:28:19Z</time>
      </trkpt>
      <trkpt lat="43.58659" lon="6.10288">
        <ele>519.7</ele>
        <time>2019-12-04T13:28:30Z</time>
      </trkpt>
      <trkpt lat="43.58669" lon="6.10283">
        <ele>520.8</ele>
        <time>2019-12-04T13:28:40Z</time>
      </trkpt>
      <trkpt lat="43.58677" lon="6.1028">
        <ele>521.5</ele>
        <time>2019-12-04T13:28:48Z</time>
      </trkpt>
      <trkpt lat="43.58686" lon="6.10276">
        <ele>523.5</ele>
        <time>2019-12-04T13:29:00Z</time>
      </trkpt>
      <trkpt lat="43.58696" lon="6.10273">
        <ele>525.1</ele>
        <time>2019-12-04T13:29:12Z</time>
      </trkpt>
      <trkpt lat="43.58704" lon="6.1027">
        <ele>526.2</ele>
        <time>2019-12-04T13:29:23Z</time>
      </trkpt>
      <trkpt lat="43.58711" lon="6.10262">
        <ele>527.3</ele>
        <time>2019-12-04T13:29:31Z</time>
      </trkpt>
      <trkpt lat="43.58718" lon="6.10254">
        <ele>528.1</ele>
        <time>2019-12-04T13:29:39Z</time>
      </trkpt>
      <trkpt lat="43.58727" lon="6.10248">
        <ele>529.1</ele>
        <time>2019-12-04T13:29:48Z</time>
      </trkpt>
      <trkpt lat="43.58736" lon="6.10247">
        <ele>529.7</ele>
        <time>2019-12-04T13:29:54Z</time>
      </trkpt>
      <trkpt lat="43.58746" lon="6.10247">
        <ele>530.1</ele>
        <time>2019-12-04T13:30:02Z</time>
      </trkpt>
      <trkpt lat="43.58755" lon="6.10245">
        <ele>530.6</ele>
        <time>2019-12-04T13:30:09Z</time>
      </trkpt>
      <trkpt lat="43.58764" lon="6.10242">
        <ele>531.1</ele>
        <time>2019-12-04T13:30:18Z</time>
      </trkpt>
      <trkpt lat="43.58771" lon="6.10234">
        <ele>531.6</ele>
        <time>2019-12-04T13:30:26Z</time>
      </trkpt>
      <trkpt lat="43.58777" lon="6.10225">
        <ele>532.1</ele>
        <time>2019-12-04T13:30:34Z</time>
      </trkpt>
      <trkpt lat="43.58781" lon="6.10213">
        <ele>532.6</ele>
        <time>2019-12-04T13:30:42Z</time>
      </trkpt>
      <trkpt lat="43.58783" lon="6.102">
        <ele>533.8</ele>
        <time>2019-12-04T13:31:36Z</time>
      </trkpt>
      <trkpt lat="43.58779" lon="6.10188">
        <ele>533.6</ele>
        <time>2019-12-04T13:31:46Z</time>
      </trkpt>
      <trkpt lat="43.5877" lon="6.10189">
        <ele>533.1</ele>
        <time>2019-12-04T13:32:07Z</time>
      </trkpt>
      <trkpt lat="43.58765" lon="6.10177">
        <ele>532.2</ele>
        <time>2019-12-04T13:32:42Z</time>
      </trkpt>
      <trkpt lat="43.58758" lon="6.10168">
        <ele>531.6</ele>
        <time>2019-12-04T13:32:53Z</time>
      </trkpt>
      <trkpt lat="43.5875" lon="6.10162">
        <ele>530.5</ele>
        <time>2019-12-04T13:33:01Z</time>
      </trkpt>
      <trkpt lat="43.58742" lon="6.10155">
        <ele>529.8</ele>
        <time>2019-12-04T13:33:08Z</time>
      </trkpt>
      <trkpt lat="43.58734" lon="6.10149">
        <ele>529.3</ele>
        <time>2019-12-04T13:33:18Z</time>
      </trkpt>
      <trkpt lat="43.58725" lon="6.10146">
        <ele>528.8</ele>
        <time>2019-12-04T13:33:35Z</time>
      </trkpt>
      <trkpt lat="43.58716" lon="6.10142">
        <ele>528.7</ele>
        <time>2019-12-04T13:33:41Z</time>
      </trkpt>
      <trkpt lat="43.58707" lon="6.10139">
        <ele>528.6</ele>
        <time>2019-12-04T13:33:46Z</time>
      </trkpt>
      <trkpt lat="43.58698" lon="6.10136">
        <ele>528.6</ele>
        <time>2019-12-04T13:33:52Z</time>
      </trkpt>
      <trkpt lat="43.58689" lon="6.10133">
        <ele>528.4</ele>
        <time>2019-12-04T13:33:56Z</time>
      </trkpt>
      <trkpt lat="43.5868" lon="6.10138">
        <ele>528.4</ele>
        <time>2019-12-04T13:34:08Z</time>
      </trkpt>
      <trkpt lat="43.58671" lon="6.1014">
        <ele>528.3</ele>
        <time>2019-12-04T13:34:18Z</time>
      </trkpt>
      <trkpt lat="43.58661" lon="6.10144">
        <ele>528.2</ele>
        <time>2019-12-04T13:34:29Z</time>
      </trkpt>
      <trkpt lat="43.58652" lon="6.10146">
        <ele>528.1</ele>
        <time>2019-12-04T13:34:42Z</time>
      </trkpt>
      <trkpt lat="43.58643" lon="6.1015">
        <ele>527.9</ele>
        <time>2019-12-04T13:34:47Z</time>
      </trkpt>
      <trkpt lat="43.58633" lon="6.1015">
        <ele>527</ele>
        <time>2019-12-04T13:34:54Z</time>
      </trkpt>
      <trkpt lat="43.58624" lon="6.10147">
        <ele>527</ele>
        <time>2019-12-04T13:35:05Z</time>
      </trkpt>
      <trkpt lat="43.58614" lon="6.10142">
        <ele>526.7</ele>
        <time>2019-12-04T13:35:12Z</time>
      </trkpt>
      <trkpt lat="43.58604" lon="6.10141">
        <ele>526.5</ele>
        <time>2019-12-04T13:35:20Z</time>
      </trkpt>
      <trkpt lat="43.58595" lon="6.10144">
        <ele>526.7</ele>
        <time>2019-12-04T13:35:30Z</time>
      </trkpt>
      <trkpt lat="43.58596" lon="6.10158">
        <ele>526.9</ele>
        <time>2019-12-04T13:39:07Z</time>
      </trkpt>
      <trkpt lat="43.58602" lon="6.10167">
        <ele>527.4</ele>
        <time>2019-12-04T13:39:17Z</time>
      </trkpt>
      <trkpt lat="43.58612" lon="6.10173">
        <ele>528.4</ele>
        <time>2019-12-04T13:39:27Z</time>
      </trkpt>
      <trkpt lat="43.5862" lon="6.10179">
        <ele>529</ele>
        <time>2019-12-04T13:39:35Z</time>
      </trkpt>
      <trkpt lat="43.58627" lon="6.10189">
        <ele>529.5</ele>
        <time>2019-12-04T13:39:45Z</time>
      </trkpt>
      <trkpt lat="43.58635" lon="6.10195">
        <ele>529.8</ele>
        <time>2019-12-04T13:39:54Z</time>
      </trkpt>
      <trkpt lat="43.58642" lon="6.10203">
        <ele>530.5</ele>
        <time>2019-12-04T13:40:07Z</time>
      </trkpt>
      <trkpt lat="43.58651" lon="6.10199">
        <ele>532.1</ele>
        <time>2019-12-04T13:40:30Z</time>
      </trkpt>
      <trkpt lat="43.58648" lon="6.10216">
        <ele>533.9</ele>
        <time>2019-12-04T13:43:01Z</time>
      </trkpt>
      <trkpt lat="43.58646" lon="6.10201">
        <ele>533</ele>
        <time>2019-12-04T13:43:29Z</time>
      </trkpt>
      <trkpt lat="43.58642" lon="6.10213">
        <ele>533.8</ele>
        <time>2019-12-04T13:43:39Z</time>
      </trkpt>
      <trkpt lat="43.58648" lon="6.10203">
        <ele>533.8</ele>
        <time>2019-12-04T13:43:41Z</time>
      </trkpt>
      <trkpt lat="43.58641" lon="6.1021">
        <ele>532</ele>
        <time>2019-12-04T13:45:40Z</time>
      </trkpt>
      <trkpt lat="43.5865" lon="6.10207">
        <ele>533</ele>
        <time>2019-12-04T13:46:13Z</time>
      </trkpt>
      <trkpt lat="43.58658" lon="6.10212">
        <ele>532.9</ele>
        <time>2019-12-04T13:46:48Z</time>
      </trkpt>
      <trkpt lat="43.58667" lon="6.10216">
        <ele>533</ele>
        <time>2019-12-04T13:47:00Z</time>
      </trkpt>
      <trkpt lat="43.58676" lon="6.10214">
        <ele>534.2</ele>
        <time>2019-12-04T13:47:17Z</time>
      </trkpt>
      <trkpt lat="43.58685" lon="6.10209">
        <ele>535.2</ele>
        <time>2019-12-04T13:47:28Z</time>
      </trkpt>
      <trkpt lat="43.58694" lon="6.10189">
        <ele>538.8</ele>
        <time>2019-12-04T13:48:02Z</time>
      </trkpt>
      <trkpt lat="43.58687" lon="6.10201">
        <ele>542</ele>
        <time>2019-12-04T13:54:38Z</time>
      </trkpt>
      <trkpt lat="43.58696" lon="6.10204">
        <ele>537.2</ele>
        <time>2019-12-04T13:56:31Z</time>
      </trkpt>
      <trkpt lat="43.58704" lon="6.10196">
        <ele>537.1</ele>
        <time>2019-12-04T13:56:42Z</time>
      </trkpt>
      <trkpt lat="43.58695" lon="6.10194">
        <ele>536.5</ele>
        <time>2019-12-04T13:57:05Z</time>
      </trkpt>
      <trkpt lat="43.58685" lon="6.10192">
        <ele>535.9</ele>
        <time>2019-12-04T13:57:18Z</time>
      </trkpt>
      <trkpt lat="43.58679" lon="6.10182">
        <ele>534</ele>
        <time>2019-12-04T13:57:32Z</time>
      </trkpt>
      <trkpt lat="43.58672" lon="6.10173">
        <ele>533.2</ele>
        <time>2019-12-04T13:57:44Z</time>
      </trkpt>
      <trkpt lat="43.58666" lon="6.10162">
        <ele>531.4</ele>
        <time>2019-12-04T13:57:58Z</time>
      </trkpt>
      <trkpt lat="43.5866" lon="6.10151">
        <ele>529.9</ele>
        <time>2019-12-04T13:58:07Z</time>
      </trkpt>
      <trkpt lat="43.58668" lon="6.10144">
        <ele>527.3</ele>
        <time>2019-12-04T13:58:59Z</time>
      </trkpt>
      <trkpt lat="43.58677" lon="6.10145">
        <ele>527.4</ele>
        <time>2019-12-04T13:59:08Z</time>
      </trkpt>
      <trkpt lat="43.58681" lon="6.10134">
        <ele>527</ele>
        <time>2019-12-04T13:59:16Z</time>
      </trkpt>
      <trkpt lat="43.58688" lon="6.10124">
        <ele>525.6</ele>
        <time>2019-12-04T13:59:26Z</time>
      </trkpt>
      <trkpt lat="43.58692" lon="6.10112">
        <ele>523.4</ele>
        <time>2019-12-04T13:59:38Z</time>
      </trkpt>
      <trkpt lat="43.58692" lon="6.10099">
        <ele>520.2</ele>
        <time>2019-12-04T13:59:58Z</time>
      </trkpt>
      <trkpt lat="43.58693" lon="6.10087">
        <ele>515</ele>
        <time>2019-12-04T14:00:39Z</time>
      </trkpt>
      <trkpt lat="43.58702" lon="6.10084">
        <ele>514.6</ele>
        <time>2019-12-04T14:01:51Z</time>
      </trkpt>
      <trkpt lat="43.5871" lon="6.1008">
        <ele>513.4</ele>
        <time>2019-12-04T14:02:04Z</time>
      </trkpt>
      <trkpt lat="43.58719" lon="6.10076">
        <ele>512.1</ele>
        <time>2019-12-04T14:02:15Z</time>
      </trkpt>
      <trkpt lat="43.58728" lon="6.10076">
        <ele>510.7</ele>
        <time>2019-12-04T14:02:26Z</time>
      </trkpt>
      <trkpt lat="43.58737" lon="6.10078">
        <ele>509.3</ele>
        <time>2019-12-04T14:02:38Z</time>
      </trkpt>
      <trkpt lat="43.58747" lon="6.1008">
        <ele>507.1</ele>
        <time>2019-12-04T14:02:55Z</time>
      </trkpt>
      <trkpt lat="43.58752" lon="6.10069">
        <ele>505.9</ele>
        <time>2019-12-04T14:03:05Z</time>
      </trkpt>
      <trkpt lat="43.5875" lon="6.10057">
        <ele>504.1</ele>
        <time>2019-12-04T14:03:21Z</time>
      </trkpt>
      <trkpt lat="43.58757" lon="6.10065">
        <ele>500.9</ele>
        <time>2019-12-04T14:03:52Z</time>
      </trkpt>
      <trkpt lat="43.58761" lon="6.10054">
        <ele>498.2</ele>
        <time>2019-12-04T14:04:17Z</time>
      </trkpt>
      <trkpt lat="43.58755" lon="6.10043">
        <ele>496.7</ele>
        <time>2019-12-04T14:04:36Z</time>
      </trkpt>
      <trkpt lat="43.58763" lon="6.1005">
        <ele>493.7</ele>
        <time>2019-12-04T14:05:04Z</time>
      </trkpt>
      <trkpt lat="43.58771" lon="6.10056">
        <ele>491.8</ele>
        <time>2019-12-04T14:05:20Z</time>
      </trkpt>
      <trkpt lat="43.58776" lon="6.10046">
        <ele>487.9</ele>
        <time>2019-12-04T14:05:53Z</time>
      </trkpt>
      <trkpt lat="43.58778" lon="6.10033">
        <ele>485.7</ele>
        <time>2019-12-04T14:06:07Z</time>
      </trkpt>
      <trkpt lat="43.58784" lon="6.10044">
        <ele>481.5</ele>
        <time>2019-12-04T14:06:32Z</time>
      </trkpt>
      <trkpt lat="43.58794" lon="6.10042">
        <ele>479.8</ele>
        <time>2019-12-04T14:06:50Z</time>
      </trkpt>
      <trkpt lat="43.58801" lon="6.1005">
        <ele>478.1</ele>
        <time>2019-12-04T14:07:56Z</time>
      </trkpt>
      <trkpt lat="43.5881" lon="6.10058">
        <ele>477.5</ele>
        <time>2019-12-04T14:08:08Z</time>
      </trkpt>
      <trkpt lat="43.58817" lon="6.10065">
        <ele>476.7</ele>
        <time>2019-12-04T14:08:21Z</time>
      </trkpt>
      <trkpt lat="43.58826" lon="6.1007">
        <ele>475.9</ele>
        <time>2019-12-04T14:08:32Z</time>
      </trkpt>
      <trkpt lat="43.58835" lon="6.10073">
        <ele>475.3</ele>
        <time>2019-12-04T14:08:40Z</time>
      </trkpt>
      <trkpt lat="43.58844" lon="6.10076">
        <ele>474.8</ele>
        <time>2019-12-04T14:08:48Z</time>
      </trkpt>
      <trkpt lat="43.58853" lon="6.10082">
        <ele>472</ele>
        <time>2019-12-04T14:09:10Z</time>
      </trkpt>
      <trkpt lat="43.5885" lon="6.10095">
        <ele>472</ele>
        <time>2019-12-04T14:09:22Z</time>
      </trkpt>
      <trkpt lat="43.58858" lon="6.10104">
        <ele>472.8</ele>
        <time>2019-12-04T14:09:33Z</time>
      </trkpt>
      <trkpt lat="43.58868" lon="6.10107">
        <ele>472.8</ele>
        <time>2019-12-04T14:09:38Z</time>
      </trkpt>
      <trkpt lat="43.58876" lon="6.10111">
        <ele>472.8</ele>
        <time>2019-12-04T14:09:45Z</time>
      </trkpt>
      <trkpt lat="43.58882" lon="6.10122">
        <ele>472.8</ele>
        <time>2019-12-04T14:09:52Z</time>
      </trkpt>
      <trkpt lat="43.5889" lon="6.1013">
        <ele>472.8</ele>
        <time>2019-12-04T14:09:58Z</time>
      </trkpt>
      <trkpt lat="43.58891" lon="6.10142">
        <ele>471</ele>
        <time>2019-12-04T14:10:12Z</time>
      </trkpt>
      <trkpt lat="43.58885" lon="6.10151">
        <ele>470.5</ele>
        <time>2019-12-04T14:10:23Z</time>
      </trkpt>
      <trkpt lat="43.5888" lon="6.10162">
        <ele>468.1</ele>
        <time>2019-12-04T14:10:59Z</time>
      </trkpt>
      <trkpt lat="43.58889" lon="6.10165">
        <ele>467.8</ele>
        <time>2019-12-04T14:11:35Z</time>
      </trkpt>
      <trkpt lat="43.5889" lon="6.10177">
        <ele>466.6</ele>
        <time>2019-12-04T14:13:42Z</time>
      </trkpt>
      <trkpt lat="43.58898" lon="6.10188">
        <ele>465.2</ele>
        <time>2019-12-04T14:13:56Z</time>
      </trkpt>
      <trkpt lat="43.58906" lon="6.10196">
        <ele>460.6</ele>
        <time>2019-12-04T14:14:28Z</time>
      </trkpt>
      <trkpt lat="43.58912" lon="6.10205">
        <ele>458.1</ele>
        <time>2019-12-04T14:14:48Z</time>
      </trkpt>
      <trkpt lat="43.5892" lon="6.10212">
        <ele>455.1</ele>
        <time>2019-12-04T14:15:10Z</time>
      </trkpt>
      <trkpt lat="43.58929" lon="6.10216">
        <ele>453.8</ele>
        <time>2019-12-04T14:15:23Z</time>
      </trkpt>
      <trkpt lat="43.58938" lon="6.10219">
        <ele>452.9</ele>
        <time>2019-12-04T14:15:38Z</time>
      </trkpt>
      <trkpt lat="43.58947" lon="6.10216">
        <ele>450.8</ele>
        <time>2019-12-04T14:16:25Z</time>
      </trkpt>
      <trkpt lat="43.58942" lon="6.10227">
        <ele>449.4</ele>
        <time>2019-12-04T14:16:47Z</time>
      </trkpt>
      <trkpt lat="43.58939" lon="6.10239">
        <ele>448.4</ele>
        <time>2019-12-04T14:17:01Z</time>
      </trkpt>
      <trkpt lat="43.58937" lon="6.10251">
        <ele>448</ele>
        <time>2019-12-04T14:17:14Z</time>
      </trkpt>
      <trkpt lat="43.58937" lon="6.10264">
        <ele>448.6</ele>
        <time>2019-12-04T14:17:28Z</time>
      </trkpt>
      <trkpt lat="43.58938" lon="6.10276">
        <ele>449</ele>
        <time>2019-12-04T14:17:41Z</time>
      </trkpt>
      <trkpt lat="43.5894" lon="6.10289">
        <ele>449.2</ele>
        <time>2019-12-04T14:17:55Z</time>
      </trkpt>
      <trkpt lat="43.58937" lon="6.10301">
        <ele>449.1</ele>
        <time>2019-12-04T14:18:11Z</time>
      </trkpt>
      <trkpt lat="43.58934" lon="6.10313">
        <ele>449.5</ele>
        <time>2019-12-04T14:18:23Z</time>
      </trkpt>
      <trkpt lat="43.58936" lon="6.10326">
        <ele>449.7</ele>
        <time>2019-12-04T14:18:33Z</time>
      </trkpt>
      <trkpt lat="43.58936" lon="6.10339">
        <ele>449.9</ele>
        <time>2019-12-04T14:18:44Z</time>
      </trkpt>
      <trkpt lat="43.58938" lon="6.10351">
        <ele>450.1</ele>
        <time>2019-12-04T14:18:52Z</time>
      </trkpt>
      <trkpt lat="43.5894" lon="6.10365">
        <ele>450.3</ele>
        <time>2019-12-04T14:19:02Z</time>
      </trkpt>
      <trkpt lat="43.58945" lon="6.10376">
        <ele>450.6</ele>
        <time>2019-12-04T14:19:14Z</time>
      </trkpt>
      <trkpt lat="43.58952" lon="6.10385">
        <ele>450.4</ele>
        <time>2019-12-04T14:19:28Z</time>
      </trkpt>
      <trkpt lat="43.58958" lon="6.10394">
        <ele>449.4</ele>
        <time>2019-12-04T14:19:40Z</time>
      </trkpt>
      <trkpt lat="43.58965" lon="6.10405">
        <ele>448.8</ele>
        <time>2019-12-04T14:19:49Z</time>
      </trkpt>
      <trkpt lat="43.58971" lon="6.10414">
        <ele>447.6</ele>
        <time>2019-12-04T14:19:59Z</time>
      </trkpt>
      <trkpt lat="43.58978" lon="6.10422">
        <ele>446.3</ele>
        <time>2019-12-04T14:20:09Z</time>
      </trkpt>
      <trkpt lat="43.58986" lon="6.10431">
        <ele>444.9</ele>
        <time>2019-12-04T14:20:20Z</time>
      </trkpt>
      <trkpt lat="43.58993" lon="6.10439">
        <ele>443.9</ele>
        <time>2019-12-04T14:20:28Z</time>
      </trkpt>
      <trkpt lat="43.58996" lon="6.10452">
        <ele>442.7</ele>
        <time>2019-12-04T14:20:38Z</time>
      </trkpt>
      <trkpt lat="43.59001" lon="6.10463">
        <ele>441.7</ele>
        <time>2019-12-04T14:20:49Z</time>
      </trkpt>
      <trkpt lat="43.59004" lon="6.10475">
        <ele>440.4</ele>
        <time>2019-12-04T14:21:01Z</time>
      </trkpt>
      <trkpt lat="43.59006" lon="6.10487">
        <ele>439.5</ele>
        <time>2019-12-04T14:21:10Z</time>
      </trkpt>
      <trkpt lat="43.59009" lon="6.10499">
        <ele>438.8</ele>
        <time>2019-12-04T14:21:17Z</time>
      </trkpt>
      <trkpt lat="43.59009" lon="6.10512">
        <ele>437.5</ele>
        <time>2019-12-04T14:21:28Z</time>
      </trkpt>
      <trkpt lat="43.59017" lon="6.10519">
        <ele>435.4</ele>
        <time>2019-12-04T14:22:38Z</time>
      </trkpt>
      <trkpt lat="43.59011" lon="6.10529">
        <ele>435.3</ele>
        <time>2019-12-04T14:23:51Z</time>
      </trkpt>
      <trkpt lat="43.59006" lon="6.10539">
        <ele>435.2</ele>
        <time>2019-12-04T14:24:00Z</time>
      </trkpt>
      <trkpt lat="43.59003" lon="6.10553">
        <ele>435</ele>
        <time>2019-12-04T14:24:08Z</time>
      </trkpt>
      <trkpt lat="43.59004" lon="6.10566">
        <ele>434.3</ele>
        <time>2019-12-04T14:24:17Z</time>
      </trkpt>
      <trkpt lat="43.58996" lon="6.10572">
        <ele>432</ele>
        <time>2019-12-04T14:24:49Z</time>
      </trkpt>
      <trkpt lat="43.58986" lon="6.10568">
        <ele>432.4</ele>
        <time>2019-12-04T14:25:00Z</time>
      </trkpt>
      <trkpt lat="43.58977" lon="6.10563">
        <ele>433.1</ele>
        <time>2019-12-04T14:25:11Z</time>
      </trkpt>
      <trkpt lat="43.58968" lon="6.1056">
        <ele>433.9</ele>
        <time>2019-12-04T14:25:22Z</time>
      </trkpt>
      <trkpt lat="43.58959" lon="6.10559">
        <ele>434.8</ele>
        <time>2019-12-04T14:25:31Z</time>
      </trkpt>
      <trkpt lat="43.58949" lon="6.1056">
        <ele>436.1</ele>
        <time>2019-12-04T14:25:40Z</time>
      </trkpt>
      <trkpt lat="43.58939" lon="6.10561">
        <ele>437.3</ele>
        <time>2019-12-04T14:25:48Z</time>
      </trkpt>
      <trkpt lat="43.58929" lon="6.1056">
        <ele>438.1</ele>
        <time>2019-12-04T14:25:59Z</time>
      </trkpt>
      <trkpt lat="43.5892" lon="6.1056">
        <ele>438.9</ele>
        <time>2019-12-04T14:26:10Z</time>
      </trkpt>
      <trkpt lat="43.58911" lon="6.10557">
        <ele>439.9</ele>
        <time>2019-12-04T14:26:21Z</time>
      </trkpt>
      <trkpt lat="43.58901" lon="6.10556">
        <ele>441.2</ele>
        <time>2019-12-04T14:26:29Z</time>
      </trkpt>
      <trkpt lat="43.58891" lon="6.10552">
        <ele>442.8</ele>
        <time>2019-12-04T14:26:39Z</time>
      </trkpt>
      <trkpt lat="43.58882" lon="6.10551">
        <ele>444</ele>
        <time>2019-12-04T14:26:48Z</time>
      </trkpt>
      <trkpt lat="43.58873" lon="6.10548">
        <ele>445.1</ele>
        <time>2019-12-04T14:26:58Z</time>
      </trkpt>
      <trkpt lat="43.58863" lon="6.10544">
        <ele>446.6</ele>
        <time>2019-12-04T14:27:08Z</time>
      </trkpt>
      <trkpt lat="43.58854" lon="6.1054">
        <ele>447.7</ele>
        <time>2019-12-04T14:27:17Z</time>
      </trkpt>
      <trkpt lat="43.58845" lon="6.10535">
        <ele>449.2</ele>
        <time>2019-12-04T14:27:29Z</time>
      </trkpt>
      <trkpt lat="43.58853" lon="6.10531">
        <ele>451.4</ele>
        <time>2019-12-04T14:27:50Z</time>
      </trkpt>
      <trkpt lat="43.58862" lon="6.10529">
        <ele>452.2</ele>
        <time>2019-12-04T14:28:01Z</time>
      </trkpt>
      <trkpt lat="43.58869" lon="6.10519">
        <ele>453.1</ele>
        <time>2019-12-04T14:28:11Z</time>
      </trkpt>
      <trkpt lat="43.5886" lon="6.10514">
        <ele>454.4</ele>
        <time>2019-12-04T14:28:22Z</time>
      </trkpt>
      <trkpt lat="43.58851" lon="6.10509">
        <ele>455.5</ele>
        <time>2019-12-04T14:28:33Z</time>
      </trkpt>
      <trkpt lat="43.58842" lon="6.10507">
        <ele>456.4</ele>
        <time>2019-12-04T14:28:42Z</time>
      </trkpt>
      <trkpt lat="43.58833" lon="6.10503">
        <ele>456.9</ele>
        <time>2019-12-04T14:28:49Z</time>
      </trkpt>
      <trkpt lat="43.58823" lon="6.10503">
        <ele>458</ele>
        <time>2019-12-04T14:29:01Z</time>
      </trkpt>
      <trkpt lat="43.58814" lon="6.10501">
        <ele>458.6</ele>
        <time>2019-12-04T14:29:08Z</time>
      </trkpt>
      <trkpt lat="43.58805" lon="6.10499">
        <ele>459.5</ele>
        <time>2019-12-04T14:29:18Z</time>
      </trkpt>
      <trkpt lat="43.58796" lon="6.10496">
        <ele>460.8</ele>
        <time>2019-12-04T14:29:30Z</time>
      </trkpt>
      <trkpt lat="43.58787" lon="6.10493">
        <ele>462.2</ele>
        <time>2019-12-04T14:29:42Z</time>
      </trkpt>
      <trkpt lat="43.58777" lon="6.10492">
        <ele>463.1</ele>
        <time>2019-12-04T14:29:51Z</time>
      </trkpt>
      <trkpt lat="43.58768" lon="6.1049">
        <ele>464</ele>
        <time>2019-12-04T14:30:01Z</time>
      </trkpt>
      <trkpt lat="43.58758" lon="6.1049">
        <ele>464.7</ele>
        <time>2019-12-04T14:30:09Z</time>
      </trkpt>
      <trkpt lat="43.58749" lon="6.10491">
        <ele>465.2</ele>
        <time>2019-12-04T14:30:16Z</time>
      </trkpt>
      <trkpt lat="43.5874" lon="6.10491">
        <ele>466</ele>
        <time>2019-12-04T14:30:26Z</time>
      </trkpt>
      <trkpt lat="43.58731" lon="6.10496">
        <ele>466.7</ele>
        <time>2019-12-04T14:30:37Z</time>
      </trkpt>
      <trkpt lat="43.58722" lon="6.10496">
        <ele>467.9</ele>
        <time>2019-12-04T14:30:51Z</time>
      </trkpt>
      <trkpt lat="43.58715" lon="6.10506">
        <ele>470</ele>
        <time>2019-12-04T14:32:04Z</time>
      </trkpt>
      <trkpt lat="43.5871" lon="6.10496">
        <ele>470.6</ele>
        <time>2019-12-04T14:33:45Z</time>
      </trkpt>
      <trkpt lat="43.58714" lon="6.10507">
        <ele>470</ele>
        <time>2019-12-04T14:36:32Z</time>
      </trkpt>
      <trkpt lat="43.58705" lon="6.10508">
        <ele>469.8</ele>
        <time>2019-12-04T14:38:32Z</time>
      </trkpt>
      <trkpt lat="43.58698" lon="6.10516">
        <ele>470.4</ele>
        <time>2019-12-04T14:38:42Z</time>
      </trkpt>
      <trkpt lat="43.58694" lon="6.10527">
        <ele>470.9</ele>
        <time>2019-12-04T14:38:52Z</time>
      </trkpt>
      <trkpt lat="43.58693" lon="6.1054">
        <ele>471.7</ele>
        <time>2019-12-04T14:39:01Z</time>
      </trkpt>
      <trkpt lat="43.58697" lon="6.10551">
        <ele>472.7</ele>
        <time>2019-12-04T14:39:10Z</time>
      </trkpt>
      <trkpt lat="43.587" lon="6.10563">
        <ele>474</ele>
        <time>2019-12-04T14:39:22Z</time>
      </trkpt>
      <trkpt lat="43.58698" lon="6.10576">
        <ele>475.2</ele>
        <time>2019-12-04T14:39:35Z</time>
      </trkpt>
      <trkpt lat="43.58691" lon="6.10585">
        <ele>476.4</ele>
        <time>2019-12-04T14:39:47Z</time>
      </trkpt>
      <trkpt lat="43.58682" lon="6.10586">
        <ele>477.7</ele>
        <time>2019-12-04T14:40:00Z</time>
      </trkpt>
      <trkpt lat="43.58674" lon="6.10582">
        <ele>478.3</ele>
        <time>2019-12-04T14:40:09Z</time>
      </trkpt>
      <trkpt lat="43.58665" lon="6.10577">
        <ele>478.8</ele>
        <time>2019-12-04T14:40:17Z</time>
      </trkpt>
      <trkpt lat="43.58656" lon="6.10574">
        <ele>479.7</ele>
        <time>2019-12-04T14:40:29Z</time>
      </trkpt>
      <trkpt lat="43.58647" lon="6.1057">
        <ele>480.4</ele>
        <time>2019-12-04T14:40:38Z</time>
      </trkpt>
      <trkpt lat="43.58638" lon="6.10567">
        <ele>481.1</ele>
        <time>2019-12-04T14:40:49Z</time>
      </trkpt>
      <trkpt lat="43.58629" lon="6.10566">
        <ele>482</ele>
        <time>2019-12-04T14:40:59Z</time>
      </trkpt>
      <trkpt lat="43.5862" lon="6.10562">
        <ele>482.7</ele>
        <time>2019-12-04T14:41:09Z</time>
      </trkpt>
      <trkpt lat="43.58611" lon="6.10557">
        <ele>483.2</ele>
        <time>2019-12-04T14:41:17Z</time>
      </trkpt>
      <trkpt lat="43.58603" lon="6.10552">
        <ele>484.1</ele>
        <time>2019-12-04T14:41:26Z</time>
      </trkpt>
      <trkpt lat="43.58595" lon="6.10545">
        <ele>484.9</ele>
        <time>2019-12-04T14:41:36Z</time>
      </trkpt>
      <trkpt lat="43.58588" lon="6.10537">
        <ele>485.3</ele>
        <time>2019-12-04T14:41:46Z</time>
      </trkpt>
      <trkpt lat="43.58581" lon="6.10529">
        <ele>486.5</ele>
        <time>2019-12-04T14:42:00Z</time>
      </trkpt>
      <trkpt lat="43.58572" lon="6.10522">
        <ele>487.8</ele>
        <time>2019-12-04T14:42:11Z</time>
      </trkpt>
      <trkpt lat="43.58565" lon="6.10513">
        <ele>488.5</ele>
        <time>2019-12-04T14:42:20Z</time>
      </trkpt>
      <trkpt lat="43.58558" lon="6.10503">
        <ele>489.6</ele>
        <time>2019-12-04T14:42:30Z</time>
      </trkpt>
      <trkpt lat="43.58553" lon="6.10493">
        <ele>490.4</ele>
        <time>2019-12-04T14:42:39Z</time>
      </trkpt>
      <trkpt lat="43.58548" lon="6.10483">
        <ele>491.3</ele>
        <time>2019-12-04T14:42:49Z</time>
      </trkpt>
      <trkpt lat="43.58545" lon="6.1047">
        <ele>492.2</ele>
        <time>2019-12-04T14:43:00Z</time>
      </trkpt>
      <trkpt lat="43.58541" lon="6.10459">
        <ele>493</ele>
        <time>2019-12-04T14:43:09Z</time>
      </trkpt>
      <trkpt lat="43.58541" lon="6.10446">
        <ele>493.7</ele>
        <time>2019-12-04T14:43:18Z</time>
      </trkpt>
      <trkpt lat="43.58539" lon="6.10434">
        <ele>494.8</ele>
        <time>2019-12-04T14:43:28Z</time>
      </trkpt>
      <trkpt lat="43.58537" lon="6.10422">
        <ele>496.1</ele>
        <time>2019-12-04T14:43:38Z</time>
      </trkpt>
      <trkpt lat="43.58529" lon="6.10415">
        <ele>498.8</ele>
        <time>2019-12-04T14:44:19Z</time>
      </trkpt>
      <trkpt lat="43.58533" lon="6.10426">
        <ele>498.5</ele>
        <time>2019-12-04T14:44:32Z</time>
      </trkpt>
      <trkpt lat="43.58534" lon="6.10439">
        <ele>498.3</ele>
        <time>2019-12-04T14:44:45Z</time>
      </trkpt>
      <trkpt lat="43.58538" lon="6.10451">
        <ele>497.6</ele>
        <time>2019-12-04T14:44:54Z</time>
      </trkpt>
      <trkpt lat="43.58543" lon="6.10464">
        <ele>496.9</ele>
        <time>2019-12-04T14:45:04Z</time>
      </trkpt>
      <trkpt lat="43.58545" lon="6.10477">
        <ele>496.5</ele>
        <time>2019-12-04T14:45:11Z</time>
      </trkpt>
      <trkpt lat="43.58549" lon="6.10488">
        <ele>495.9</ele>
        <time>2019-12-04T14:45:20Z</time>
      </trkpt>
      <trkpt lat="43.58554" lon="6.105">
        <ele>495.1</ele>
        <time>2019-12-04T14:45:29Z</time>
      </trkpt>
      <trkpt lat="43.58561" lon="6.1051">
        <ele>494.3</ele>
        <time>2019-12-04T14:45:38Z</time>
      </trkpt>
      <trkpt lat="43.58567" lon="6.10519">
        <ele>493.7</ele>
        <time>2019-12-04T14:45:46Z</time>
      </trkpt>
      <trkpt lat="43.58575" lon="6.10528">
        <ele>492.6</ele>
        <time>2019-12-04T14:45:56Z</time>
      </trkpt>
      <trkpt lat="43.58582" lon="6.10536">
        <ele>491.4</ele>
        <time>2019-12-04T14:46:06Z</time>
      </trkpt>
      <trkpt lat="43.58581" lon="6.10548">
        <ele>489</ele>
        <time>2019-12-04T14:46:52Z</time>
      </trkpt>
      <trkpt lat="43.58586" lon="6.10561">
        <ele>488.5</ele>
        <time>2019-12-04T14:47:02Z</time>
      </trkpt>
      <trkpt lat="43.58589" lon="6.10572">
        <ele>487.9</ele>
        <time>2019-12-04T14:47:11Z</time>
      </trkpt>
      <trkpt lat="43.58592" lon="6.10585">
        <ele>487.2</ele>
        <time>2019-12-04T14:47:18Z</time>
      </trkpt>
      <trkpt lat="43.58594" lon="6.10598">
        <ele>485.8</ele>
        <time>2019-12-04T14:47:30Z</time>
      </trkpt>
      <trkpt lat="43.586" lon="6.10607">
        <ele>484.4</ele>
        <time>2019-12-04T14:47:40Z</time>
      </trkpt>
      <trkpt lat="43.58606" lon="6.10619">
        <ele>482.8</ele>
        <time>2019-12-04T14:47:51Z</time>
      </trkpt>
      <trkpt lat="43.58613" lon="6.10626">
        <ele>481.1</ele>
        <time>2019-12-04T14:48:02Z</time>
      </trkpt>
      <trkpt lat="43.58619" lon="6.10636">
        <ele>478.8</ele>
        <time>2019-12-04T14:48:14Z</time>
      </trkpt>
      <trkpt lat="43.58626" lon="6.10646">
        <ele>476.7</ele>
        <time>2019-12-04T14:48:26Z</time>
      </trkpt>
      <trkpt lat="43.58631" lon="6.10656">
        <ele>475</ele>
        <time>2019-12-04T14:48:36Z</time>
      </trkpt>
      <trkpt lat="43.58635" lon="6.10668">
        <ele>471.8</ele>
        <time>2019-12-04T14:49:00Z</time>
      </trkpt>
      <trkpt lat="43.58636" lon="6.10681">
        <ele>469.8</ele>
        <time>2019-12-04T14:49:13Z</time>
      </trkpt>
      <trkpt lat="43.58629" lon="6.10689">
        <ele>468.6</ele>
        <time>2019-12-04T14:49:25Z</time>
      </trkpt>
      <trkpt lat="43.58624" lon="6.10699">
        <ele>468</ele>
        <time>2019-12-04T14:49:36Z</time>
      </trkpt>
      <trkpt lat="43.58617" lon="6.1071">
        <ele>467.8</ele>
        <time>2019-12-04T14:49:45Z</time>
      </trkpt>
      <trkpt lat="43.58609" lon="6.10716">
        <ele>467.1</ele>
        <time>2019-12-04T14:50:16Z</time>
      </trkpt>
      <trkpt lat="43.58603" lon="6.10726">
        <ele>467.2</ele>
        <time>2019-12-04T14:50:26Z</time>
      </trkpt>
      <trkpt lat="43.58596" lon="6.10737">
        <ele>468.2</ele>
        <time>2019-12-04T14:50:37Z</time>
      </trkpt>
      <trkpt lat="43.58589" lon="6.10745">
        <ele>468.9</ele>
        <time>2019-12-04T14:50:45Z</time>
      </trkpt>
      <trkpt lat="43.58583" lon="6.10755">
        <ele>470.1</ele>
        <time>2019-12-04T14:50:55Z</time>
      </trkpt>
      <trkpt lat="43.58579" lon="6.10766">
        <ele>471.2</ele>
        <time>2019-12-04T14:51:06Z</time>
      </trkpt>
      <trkpt lat="43.58576" lon="6.10778">
        <ele>472.1</ele>
        <time>2019-12-04T14:51:20Z</time>
      </trkpt>
      <trkpt lat="43.58569" lon="6.10786">
        <ele>473.7</ele>
        <time>2019-12-04T14:51:33Z</time>
      </trkpt>
      <trkpt lat="43.58563" lon="6.10796">
        <ele>475.6</ele>
        <time>2019-12-04T14:51:45Z</time>
      </trkpt>
      <trkpt lat="43.58561" lon="6.10809">
        <ele>477.9</ele>
        <time>2019-12-04T14:52:00Z</time>
      </trkpt>
      <trkpt lat="43.58558" lon="6.1082">
        <ele>480.5</ele>
        <time>2019-12-04T14:52:17Z</time>
      </trkpt>
      <trkpt lat="43.58559" lon="6.10833">
        <ele>482</ele>
        <time>2019-12-04T14:52:27Z</time>
      </trkpt>
      <trkpt lat="43.58554" lon="6.10845">
        <ele>483.7</ele>
        <time>2019-12-04T14:52:40Z</time>
      </trkpt>
      <trkpt lat="43.5855" lon="6.10856">
        <ele>484.7</ele>
        <time>2019-12-04T14:52:47Z</time>
      </trkpt>
      <trkpt lat="43.58545" lon="6.10867">
        <ele>485.9</ele>
        <time>2019-12-04T14:52:59Z</time>
      </trkpt>
      <trkpt lat="43.58539" lon="6.10877">
        <ele>486.2</ele>
        <time>2019-12-04T14:53:07Z</time>
      </trkpt>
      <trkpt lat="43.58531" lon="6.10887">
        <ele>486.4</ele>
        <time>2019-12-04T14:53:14Z</time>
      </trkpt>
      <trkpt lat="43.58525" lon="6.10896">
        <ele>486.5</ele>
        <time>2019-12-04T14:53:19Z</time>
      </trkpt>
      <trkpt lat="43.58518" lon="6.10906">
        <ele>486.7</ele>
        <time>2019-12-04T14:53:25Z</time>
      </trkpt>
      <trkpt lat="43.58509" lon="6.10914">
        <ele>486.9</ele>
        <time>2019-12-04T14:53:38Z</time>
      </trkpt>
      <trkpt lat="43.58499" lon="6.10915">
        <ele>487.1</ele>
        <time>2019-12-04T14:53:47Z</time>
      </trkpt>
      <trkpt lat="43.5849" lon="6.10922">
        <ele>487.1</ele>
        <time>2019-12-04T14:53:54Z</time>
      </trkpt>
      <trkpt lat="43.58481" lon="6.10925">
        <ele>486.7</ele>
        <time>2019-12-04T14:54:03Z</time>
      </trkpt>
      <trkpt lat="43.58473" lon="6.1093">
        <ele>486.3</ele>
        <time>2019-12-04T14:54:10Z</time>
      </trkpt>
      <trkpt lat="43.58466" lon="6.10938">
        <ele>485.9</ele>
        <time>2019-12-04T14:54:16Z</time>
      </trkpt>
      <trkpt lat="43.58457" lon="6.10941">
        <ele>485.8</ele>
        <time>2019-12-04T14:54:23Z</time>
      </trkpt>
      <trkpt lat="43.58449" lon="6.10948">
        <ele>485.7</ele>
        <time>2019-12-04T14:54:32Z</time>
      </trkpt>
      <trkpt lat="43.58439" lon="6.1095">
        <ele>485.4</ele>
        <time>2019-12-04T14:54:40Z</time>
      </trkpt>
      <trkpt lat="43.58429" lon="6.10955">
        <ele>485.2</ele>
        <time>2019-12-04T14:54:47Z</time>
      </trkpt>
      <trkpt lat="43.58419" lon="6.10957">
        <ele>485.1</ele>
        <time>2019-12-04T14:54:56Z</time>
      </trkpt>
      <trkpt lat="43.58409" lon="6.10959">
        <ele>485</ele>
        <time>2019-12-04T14:55:04Z</time>
      </trkpt>
      <trkpt lat="43.58403" lon="6.10968">
        <ele>482.9</ele>
        <time>2019-12-04T14:56:30Z</time>
      </trkpt>
      <trkpt lat="43.58396" lon="6.10977">
        <ele>482.9</ele>
        <time>2019-12-04T14:57:05Z</time>
      </trkpt>
      <trkpt lat="43.58392" lon="6.10989">
        <ele>481.7</ele>
        <time>2019-12-04T14:57:20Z</time>
      </trkpt>
      <trkpt lat="43.58385" lon="6.11">
        <ele>480.9</ele>
        <time>2019-12-04T14:57:27Z</time>
      </trkpt>
      <trkpt lat="43.58381" lon="6.11012">
        <ele>480</ele>
        <time>2019-12-04T14:57:34Z</time>
      </trkpt>
      <trkpt lat="43.58377" lon="6.11023">
        <ele>479.5</ele>
        <time>2019-12-04T14:57:41Z</time>
      </trkpt>
      <trkpt lat="43.58371" lon="6.11033">
        <ele>479.2</ele>
        <time>2019-12-04T14:57:47Z</time>
      </trkpt>
      <trkpt lat="43.58366" lon="6.11044">
        <ele>478.7</ele>
        <time>2019-12-04T14:57:55Z</time>
      </trkpt>
      <trkpt lat="43.58361" lon="6.11058">
        <ele>478.1</ele>
        <time>2019-12-04T14:58:03Z</time>
      </trkpt>
      <trkpt lat="43.58357" lon="6.11071">
        <ele>477.3</ele>
        <time>2019-12-04T14:58:12Z</time>
      </trkpt>
      <trkpt lat="43.5835" lon="6.1108">
        <ele>476.8</ele>
        <time>2019-12-04T14:58:20Z</time>
      </trkpt>
      <trkpt lat="43.58345" lon="6.11091">
        <ele>476.5</ele>
        <time>2019-12-04T14:58:28Z</time>
      </trkpt>
      <trkpt lat="43.58341" lon="6.11103">
        <ele>476.3</ele>
        <time>2019-12-04T14:58:35Z</time>
      </trkpt>
      <trkpt lat="43.58335" lon="6.11114">
        <ele>475.9</ele>
        <time>2019-12-04T14:58:42Z</time>
      </trkpt>
      <trkpt lat="43.58333" lon="6.11127">
        <ele>475.5</ele>
        <time>2019-12-04T14:58:51Z</time>
      </trkpt>
      <trkpt lat="43.58329" lon="6.11138">
        <ele>475</ele>
        <time>2019-12-04T14:59:01Z</time>
      </trkpt>
      <trkpt lat="43.58324" lon="6.11149">
        <ele>474.6</ele>
        <time>2019-12-04T14:59:08Z</time>
      </trkpt>
      <trkpt lat="43.5832" lon="6.1116">
        <ele>473.5</ele>
        <time>2019-12-04T14:59:17Z</time>
      </trkpt>
      <trkpt lat="43.58315" lon="6.11171">
        <ele>472.9</ele>
        <time>2019-12-04T14:59:24Z</time>
      </trkpt>
      <trkpt lat="43.58311" lon="6.11183">
        <ele>472.5</ele>
        <time>2019-12-04T14:59:33Z</time>
      </trkpt>
      <trkpt lat="43.58306" lon="6.11194">
        <ele>472.2</ele>
        <time>2019-12-04T14:59:41Z</time>
      </trkpt>
      <trkpt lat="43.58302" lon="6.11205">
        <ele>471.8</ele>
        <time>2019-12-04T14:59:47Z</time>
      </trkpt>
      <trkpt lat="43.58298" lon="6.11218">
        <ele>471.3</ele>
        <time>2019-12-04T14:59:54Z</time>
      </trkpt>
      <trkpt lat="43.58297" lon="6.11232">
        <ele>470.8</ele>
        <time>2019-12-04T15:00:03Z</time>
      </trkpt>
      <trkpt lat="43.58292" lon="6.11245">
        <ele>470.1</ele>
        <time>2019-12-04T15:00:12Z</time>
      </trkpt>
      <trkpt lat="43.58287" lon="6.11256">
        <ele>469.7</ele>
        <time>2019-12-04T15:00:18Z</time>
      </trkpt>
      <trkpt lat="43.58284" lon="6.11269">
        <ele>469.4</ele>
        <time>2019-12-04T15:00:26Z</time>
      </trkpt>
      <trkpt lat="43.5828" lon="6.1128">
        <ele>469</ele>
        <time>2019-12-04T15:00:33Z</time>
      </trkpt>
      <trkpt lat="43.58274" lon="6.11291">
        <ele>468.7</ele>
        <time>2019-12-04T15:00:41Z</time>
      </trkpt>
      <trkpt lat="43.58269" lon="6.11301">
        <ele>468.6</ele>
        <time>2019-12-04T15:00:47Z</time>
      </trkpt>
      <trkpt lat="43.58264" lon="6.11314">
        <ele>468.5</ele>
        <time>2019-12-04T15:00:56Z</time>
      </trkpt>
      <trkpt lat="43.58259" lon="6.11326">
        <ele>468.2</ele>
        <time>2019-12-04T15:01:05Z</time>
      </trkpt>
      <trkpt lat="43.58254" lon="6.11337">
        <ele>468</ele>
        <time>2019-12-04T15:01:15Z</time>
      </trkpt>
      <trkpt lat="43.58249" lon="6.11349">
        <ele>467.9</ele>
        <time>2019-12-04T15:01:24Z</time>
      </trkpt>
      <trkpt lat="43.58244" lon="6.11362">
        <ele>467.8</ele>
        <time>2019-12-04T15:01:31Z</time>
      </trkpt>
      <trkpt lat="43.58239" lon="6.11373">
        <ele>467.6</ele>
        <time>2019-12-04T15:01:38Z</time>
      </trkpt>
      <trkpt lat="43.58235" lon="6.11384">
        <ele>467.5</ele>
        <time>2019-12-04T15:01:44Z</time>
      </trkpt>
      <trkpt lat="43.5823" lon="6.11395">
        <ele>467.3</ele>
        <time>2019-12-04T15:01:51Z</time>
      </trkpt>
      <trkpt lat="43.58225" lon="6.11406">
        <ele>467.3</ele>
        <time>2019-12-04T15:01:59Z</time>
      </trkpt>
      <trkpt lat="43.5822" lon="6.11416">
        <ele>467.2</ele>
        <time>2019-12-04T15:02:09Z</time>
      </trkpt>
      <trkpt lat="43.58216" lon="6.11428">
        <ele>467.3</ele>
        <time>2019-12-04T15:02:16Z</time>
      </trkpt>
      <trkpt lat="43.58214" lon="6.11441">
        <ele>467.3</ele>
        <time>2019-12-04T15:02:25Z</time>
      </trkpt>
      <trkpt lat="43.58211" lon="6.11454">
        <ele>467.3</ele>
        <time>2019-12-04T15:02:33Z</time>
      </trkpt>
      <trkpt lat="43.58206" lon="6.11466">
        <ele>467.3</ele>
        <time>2019-12-04T15:02:40Z</time>
      </trkpt>
      <trkpt lat="43.58203" lon="6.11478">
        <ele>467.2</ele>
        <time>2019-12-04T15:02:49Z</time>
      </trkpt>
      <trkpt lat="43.58202" lon="6.1149">
        <ele>467</ele>
        <time>2019-12-04T15:02:59Z</time>
      </trkpt>
      <trkpt lat="43.58199" lon="6.11504">
        <ele>467.2</ele>
        <time>2019-12-04T15:03:07Z</time>
      </trkpt>
      <trkpt lat="43.58197" lon="6.11516">
        <ele>467.3</ele>
        <time>2019-12-04T15:03:14Z</time>
      </trkpt>
      <trkpt lat="43.58192" lon="6.11528">
        <ele>467.3</ele>
        <time>2019-12-04T15:03:22Z</time>
      </trkpt>
      <trkpt lat="43.5819" lon="6.1154">
        <ele>467.2</ele>
        <time>2019-12-04T15:03:56Z</time>
      </trkpt>
      <trkpt lat="43.5819" lon="6.11554">
        <ele>466.7</ele>
        <time>2019-12-04T15:05:23Z</time>
      </trkpt>
      <trkpt lat="43.58184" lon="6.11564">
        <ele>466.7</ele>
        <time>2019-12-04T15:05:29Z</time>
      </trkpt>
      <trkpt lat="43.58177" lon="6.11572">
        <ele>466.6</ele>
        <time>2019-12-04T15:05:38Z</time>
      </trkpt>
      <trkpt lat="43.58174" lon="6.11585">
        <ele>466.8</ele>
        <time>2019-12-04T15:05:50Z</time>
      </trkpt>
      <trkpt lat="43.5817" lon="6.11597">
        <ele>466.9</ele>
        <time>2019-12-04T15:05:57Z</time>
      </trkpt>
      <trkpt lat="43.58167" lon="6.11609">
        <ele>467</ele>
        <time>2019-12-04T15:06:06Z</time>
      </trkpt>
      <trkpt lat="43.58162" lon="6.11622">
        <ele>466.7</ele>
        <time>2019-12-04T15:06:16Z</time>
      </trkpt>
      <trkpt lat="43.58156" lon="6.11634">
        <ele>466.3</ele>
        <time>2019-12-04T15:06:23Z</time>
      </trkpt>
      <trkpt lat="43.58151" lon="6.11645">
        <ele>466</ele>
        <time>2019-12-04T15:06:30Z</time>
      </trkpt>
      <trkpt lat="43.5815" lon="6.11658">
        <ele>465.8</ele>
        <time>2019-12-04T15:06:40Z</time>
      </trkpt>
      <trkpt lat="43.58143" lon="6.11669">
        <ele>465.7</ele>
        <time>2019-12-04T15:06:48Z</time>
      </trkpt>
      <trkpt lat="43.58138" lon="6.11679">
        <ele>465.6</ele>
        <time>2019-12-04T15:06:57Z</time>
      </trkpt>
      <trkpt lat="43.58132" lon="6.1169">
        <ele>465.4</ele>
        <time>2019-12-04T15:07:07Z</time>
      </trkpt>
      <trkpt lat="43.58126" lon="6.11699">
        <ele>464.7</ele>
        <time>2019-12-04T15:07:14Z</time>
      </trkpt>
      <trkpt lat="43.5812" lon="6.1171">
        <ele>464.4</ele>
        <time>2019-12-04T15:07:21Z</time>
      </trkpt>
      <trkpt lat="43.58112" lon="6.11719">
        <ele>464.2</ele>
        <time>2019-12-04T15:07:30Z</time>
      </trkpt>
      <trkpt lat="43.58106" lon="6.11729">
        <ele>464</ele>
        <time>2019-12-04T15:07:37Z</time>
      </trkpt>
      <trkpt lat="43.58099" lon="6.11737">
        <ele>463.5</ele>
        <time>2019-12-04T15:07:45Z</time>
      </trkpt>
      <trkpt lat="43.58096" lon="6.11749">
        <ele>462.9</ele>
        <time>2019-12-04T15:08:03Z</time>
      </trkpt>
      <trkpt lat="43.58101" lon="6.11738">
        <ele>462.8</ele>
        <time>2019-12-04T15:08:15Z</time>
      </trkpt>
      <trkpt lat="43.58093" lon="6.11731">
        <ele>461.9</ele>
        <time>2019-12-04T15:08:45Z</time>
      </trkpt>
      <trkpt lat="43.58087" lon="6.1174">
        <ele>461.1</ele>
        <time>2019-12-04T15:09:33Z</time>
      </trkpt>
      <trkpt lat="43.58077" lon="6.11742">
        <ele>461.5</ele>
        <time>2019-12-04T15:09:48Z</time>
      </trkpt>
      <trkpt lat="43.58068" lon="6.11746">
        <ele>461.6</ele>
        <time>2019-12-04T15:09:58Z</time>
      </trkpt>
      <trkpt lat="43.58059" lon="6.1175">
        <ele>461.6</ele>
        <time>2019-12-04T15:10:08Z</time>
      </trkpt>
      <trkpt lat="43.58049" lon="6.11754">
        <ele>461.5</ele>
        <time>2019-12-04T15:10:17Z</time>
      </trkpt>
      <trkpt lat="43.5804" lon="6.11759">
        <ele>460.7</ele>
        <time>2019-12-04T15:10:31Z</time>
      </trkpt>
      <trkpt lat="43.58031" lon="6.11763">
        <ele>460.2</ele>
        <time>2019-12-04T15:10:37Z</time>
      </trkpt>
      <trkpt lat="43.58023" lon="6.11767">
        <ele>459.9</ele>
        <time>2019-12-04T15:10:44Z</time>
      </trkpt>
      <trkpt lat="43.58013" lon="6.11771">
        <ele>459.6</ele>
        <time>2019-12-04T15:10:52Z</time>
      </trkpt>
      <trkpt lat="43.58004" lon="6.11775">
        <ele>459.1</ele>
        <time>2019-12-04T15:11:02Z</time>
      </trkpt>
      <trkpt lat="43.57995" lon="6.11778">
        <ele>458.9</ele>
        <time>2019-12-04T15:11:10Z</time>
      </trkpt>
      <trkpt lat="43.57986" lon="6.11782">
        <ele>458.6</ele>
        <time>2019-12-04T15:11:18Z</time>
      </trkpt>
      <trkpt lat="43.57977" lon="6.11789">
        <ele>458.3</ele>
        <time>2019-12-04T15:11:26Z</time>
      </trkpt>
      <trkpt lat="43.57971" lon="6.11798">
        <ele>458.1</ele>
        <time>2019-12-04T15:11:36Z</time>
      </trkpt>
      <trkpt lat="43.57963" lon="6.11806">
        <ele>457.9</ele>
        <time>2019-12-04T15:11:48Z</time>
      </trkpt>
      <trkpt lat="43.57957" lon="6.11816">
        <ele>457.6</ele>
        <time>2019-12-04T15:11:59Z</time>
      </trkpt>
      <trkpt lat="43.57952" lon="6.11827">
        <ele>457.5</ele>
        <time>2019-12-04T15:12:09Z</time>
      </trkpt>
      <trkpt lat="43.57947" lon="6.11838">
        <ele>457.3</ele>
        <time>2019-12-04T15:12:20Z</time>
      </trkpt>
      <trkpt lat="43.57945" lon="6.11851">
        <ele>457.1</ele>
        <time>2019-12-04T15:12:29Z</time>
      </trkpt>
      <trkpt lat="43.57941" lon="6.11862">
        <ele>457</ele>
        <time>2019-12-04T15:12:36Z</time>
      </trkpt>
      <trkpt lat="43.57935" lon="6.11872">
        <ele>456.6</ele>
        <time>2019-12-04T15:13:14Z</time>
      </trkpt>
      <trkpt lat="43.57931" lon="6.11884">
        <ele>456.1</ele>
        <time>2019-12-04T15:13:24Z</time>
      </trkpt>
      <trkpt lat="43.57927" lon="6.11896">
        <ele>455.3</ele>
        <time>2019-12-04T15:13:37Z</time>
      </trkpt>
      <trkpt lat="43.57927" lon="6.11909">
        <ele>454.7</ele>
        <time>2019-12-04T15:13:48Z</time>
      </trkpt>
      <trkpt lat="43.57927" lon="6.11925">
        <ele>454.4</ele>
        <time>2019-12-04T15:13:58Z</time>
      </trkpt>
      <trkpt lat="43.57923" lon="6.11938">
        <ele>454.3</ele>
        <time>2019-12-04T15:14:04Z</time>
      </trkpt>
      <trkpt lat="43.57924" lon="6.11951">
        <ele>454.1</ele>
        <time>2019-12-04T15:14:57Z</time>
      </trkpt>
      <trkpt lat="43.57928" lon="6.11938">
        <ele>453.7</ele>
        <time>2019-12-04T15:16:55Z</time>
      </trkpt>
      <trkpt lat="43.5793" lon="6.11926">
        <ele>453.6</ele>
        <time>2019-12-04T15:17:05Z</time>
      </trkpt>
      <trkpt lat="43.57929" lon="6.11912">
        <ele>453.5</ele>
        <time>2019-12-04T15:17:16Z</time>
      </trkpt>
      <trkpt lat="43.57924" lon="6.11902">
        <ele>453.4</ele>
        <time>2019-12-04T15:17:43Z</time>
      </trkpt>
      <trkpt lat="43.57919" lon="6.11891">
        <ele>453.1</ele>
        <time>2019-12-04T15:17:56Z</time>
      </trkpt>
      <trkpt lat="43.57914" lon="6.1188">
        <ele>453</ele>
        <time>2019-12-04T15:18:05Z</time>
      </trkpt>
      <trkpt lat="43.57906" lon="6.11871">
        <ele>452.9</ele>
        <time>2019-12-04T15:18:16Z</time>
      </trkpt>
      <trkpt lat="43.57899" lon="6.11864">
        <ele>452.8</ele>
        <time>2019-12-04T15:18:25Z</time>
      </trkpt>
      <trkpt lat="43.57894" lon="6.11853">
        <ele>452.7</ele>
        <time>2019-12-04T15:18:33Z</time>
      </trkpt>
      <trkpt lat="43.57891" lon="6.1184">
        <ele>452.7</ele>
        <time>2019-12-04T15:18:42Z</time>
      </trkpt>
      <trkpt lat="43.57885" lon="6.1183">
        <ele>452.3</ele>
        <time>2019-12-04T15:18:50Z</time>
      </trkpt>
      <trkpt lat="43.5788" lon="6.11819">
        <ele>452</ele>
        <time>2019-12-04T15:18:59Z</time>
      </trkpt>
      <trkpt lat="43.57874" lon="6.11809">
        <ele>451.9</ele>
        <time>2019-12-04T15:19:09Z</time>
      </trkpt>
      <trkpt lat="43.57865" lon="6.11805">
        <ele>451.5</ele>
        <time>2019-12-04T15:19:41Z</time>
      </trkpt>
      <trkpt lat="43.57862" lon="6.11792">
        <ele>451.4</ele>
        <time>2019-12-04T15:19:49Z</time>
      </trkpt>
      <trkpt lat="43.57859" lon="6.11779">
        <ele>451.1</ele>
        <time>2019-12-04T15:19:58Z</time>
      </trkpt>
      <trkpt lat="43.57858" lon="6.11766">
        <ele>450.9</ele>
        <time>2019-12-04T15:20:07Z</time>
      </trkpt>
      <trkpt lat="43.57856" lon="6.11752">
        <ele>450.7</ele>
        <time>2019-12-04T15:20:15Z</time>
      </trkpt>
      <trkpt lat="43.57853" lon="6.11739">
        <ele>450.7</ele>
        <time>2019-12-04T15:20:23Z</time>
      </trkpt>
      <trkpt lat="43.5785" lon="6.11727">
        <ele>450.6</ele>
        <time>2019-12-04T15:20:31Z</time>
      </trkpt>
      <trkpt lat="43.57848" lon="6.11714">
        <ele>450.5</ele>
        <time>2019-12-04T15:20:38Z</time>
      </trkpt>
      <trkpt lat="43.57846" lon="6.11701">
        <ele>450.2</ele>
        <time>2019-12-04T15:20:47Z</time>
      </trkpt>
      <trkpt lat="43.57843" lon="6.11689">
        <ele>449.9</ele>
        <time>2019-12-04T15:20:55Z</time>
      </trkpt>
      <trkpt lat="43.57841" lon="6.11675">
        <ele>449.3</ele>
        <time>2019-12-04T15:21:04Z</time>
      </trkpt>
      <trkpt lat="43.57838" lon="6.11662">
        <ele>448.9</ele>
        <time>2019-12-04T15:21:12Z</time>
      </trkpt>
      <trkpt lat="43.57833" lon="6.11649">
        <ele>448.2</ele>
        <time>2019-12-04T15:21:21Z</time>
      </trkpt>
      <trkpt lat="43.57828" lon="6.11636">
        <ele>447.9</ele>
        <time>2019-12-04T15:21:30Z</time>
      </trkpt>
      <trkpt lat="43.57823" lon="6.11625">
        <ele>447.6</ele>
        <time>2019-12-04T15:21:38Z</time>
      </trkpt>
      <trkpt lat="43.57818" lon="6.11613">
        <ele>447.3</ele>
        <time>2019-12-04T15:21:47Z</time>
      </trkpt>
      <trkpt lat="43.5781" lon="6.11606">
        <ele>447.1</ele>
        <time>2019-12-04T15:21:53Z</time>
      </trkpt>
      <trkpt lat="43.578" lon="6.116">
        <ele>447</ele>
        <time>2019-12-04T15:21:59Z</time>
      </trkpt>
      <trkpt lat="43.57791" lon="6.11595">
        <ele>446.9</ele>
        <time>2019-12-04T15:22:07Z</time>
      </trkpt>
      <trkpt lat="43.57781" lon="6.11593">
        <ele>446.8</ele>
        <time>2019-12-04T15:22:13Z</time>
      </trkpt>
      <trkpt lat="43.57773" lon="6.11587">
        <ele>446.8</ele>
        <time>2019-12-04T15:22:21Z</time>
      </trkpt>
      <trkpt lat="43.57763" lon="6.11583">
        <ele>446.8</ele>
        <time>2019-12-04T15:22:29Z</time>
      </trkpt>
      <trkpt lat="43.57754" lon="6.11579">
        <ele>446.8</ele>
        <time>2019-12-04T15:22:38Z</time>
      </trkpt>
      <trkpt lat="43.57746" lon="6.11573">
        <ele>446.9</ele>
        <time>2019-12-04T15:22:48Z</time>
      </trkpt>
      <trkpt lat="43.5774" lon="6.11562">
        <ele>447</ele>
        <time>2019-12-04T15:22:58Z</time>
      </trkpt>
      <trkpt lat="43.57736" lon="6.11551">
        <ele>447.2</ele>
        <time>2019-12-04T15:23:07Z</time>
      </trkpt>
      <trkpt lat="43.57734" lon="6.11537">
        <ele>447.3</ele>
        <time>2019-12-04T15:23:19Z</time>
      </trkpt>
      <trkpt lat="43.57738" lon="6.11524">
        <ele>447.3</ele>
        <time>2019-12-04T15:23:26Z</time>
      </trkpt>
      <trkpt lat="43.57736" lon="6.11511">
        <ele>447.5</ele>
        <time>2019-12-04T15:23:35Z</time>
      </trkpt>
      <trkpt lat="43.57739" lon="6.11498">
        <ele>447.8</ele>
        <time>2019-12-04T15:23:43Z</time>
      </trkpt>
      <trkpt lat="43.57739" lon="6.11486">
        <ele>447.9</ele>
        <time>2019-12-04T15:23:50Z</time>
      </trkpt>
      <trkpt lat="43.57739" lon="6.11472">
        <ele>448.1</ele>
        <time>2019-12-04T15:24:00Z</time>
      </trkpt>
      <trkpt lat="43.57741" lon="6.11459">
        <ele>448.3</ele>
        <time>2019-12-04T15:24:10Z</time>
      </trkpt>
      <trkpt lat="43.57743" lon="6.11446">
        <ele>448.5</ele>
        <time>2019-12-04T15:24:18Z</time>
      </trkpt>
      <trkpt lat="43.57743" lon="6.11432">
        <ele>448.8</ele>
        <time>2019-12-04T15:24:26Z</time>
      </trkpt>
      <trkpt lat="43.57744" lon="6.11418">
        <ele>449</ele>
        <time>2019-12-04T15:24:34Z</time>
      </trkpt>
      <trkpt lat="43.57746" lon="6.11404">
        <ele>449</ele>
        <time>2019-12-04T15:24:40Z</time>
      </trkpt>
      <trkpt lat="43.5775" lon="6.11393">
        <ele>449.6</ele>
        <time>2019-12-04T15:24:46Z</time>
      </trkpt>
      <trkpt lat="43.57752" lon="6.11381">
        <ele>450.2</ele>
        <time>2019-12-04T15:24:55Z</time>
      </trkpt>
      <trkpt lat="43.57749" lon="6.11368">
        <ele>450.5</ele>
        <time>2019-12-04T15:25:04Z</time>
      </trkpt>
      <trkpt lat="43.5775" lon="6.11354">
        <ele>450.7</ele>
        <time>2019-12-04T15:25:11Z</time>
      </trkpt>
      <trkpt lat="43.57746" lon="6.11342">
        <ele>450.7</ele>
        <time>2019-12-04T15:25:18Z</time>
      </trkpt>
      <trkpt lat="43.57746" lon="6.11328">
        <ele>450.8</ele>
        <time>2019-12-04T15:25:26Z</time>
      </trkpt>
      <trkpt lat="43.57745" lon="6.11316">
        <ele>450.8</ele>
        <time>2019-12-04T15:25:34Z</time>
      </trkpt>
      <trkpt lat="43.57746" lon="6.11302">
        <ele>450.9</ele>
        <time>2019-12-04T15:25:41Z</time>
      </trkpt>
      <trkpt lat="43.57752" lon="6.11291">
        <ele>451</ele>
        <time>2019-12-04T15:25:49Z</time>
      </trkpt>
      <trkpt lat="43.5775" lon="6.11278">
        <ele>451.1</ele>
        <time>2019-12-04T15:25:59Z</time>
      </trkpt>
      <trkpt lat="43.57745" lon="6.11267">
        <ele>451.1</ele>
        <time>2019-12-04T15:26:14Z</time>
      </trkpt>
      <trkpt lat="43.5774" lon="6.11254">
        <ele>451.1</ele>
        <time>2019-12-04T15:27:25Z</time>
      </trkpt>
      <trkpt lat="43.57736" lon="6.11242">
        <ele>451.4</ele>
        <time>2019-12-04T15:28:05Z</time>
      </trkpt>
      <trkpt lat="43.57738" lon="6.1123">
        <ele>451.5</ele>
        <time>2019-12-04T15:28:16Z</time>
      </trkpt>
      <trkpt lat="43.57739" lon="6.11215">
        <ele>451.5</ele>
        <time>2019-12-04T15:28:25Z</time>
      </trkpt>
      <trkpt lat="43.57736" lon="6.11203">
        <ele>451.6</ele>
        <time>2019-12-04T15:28:36Z</time>
      </trkpt>
      <trkpt lat="43.57726" lon="6.11198">
        <ele>451.9</ele>
        <time>2019-12-04T15:28:45Z</time>
      </trkpt>
      <trkpt lat="43.57717" lon="6.11196">
        <ele>452.1</ele>
        <time>2019-12-04T15:28:52Z</time>
      </trkpt>
      <trkpt lat="43.57707" lon="6.11193">
        <ele>452.3</ele>
        <time>2019-12-04T15:29:01Z</time>
      </trkpt>
      <trkpt lat="43.57697" lon="6.11194">
        <ele>452.3</ele>
        <time>2019-12-04T15:29:11Z</time>
      </trkpt>
      <trkpt lat="43.57688" lon="6.11193">
        <ele>452.2</ele>
        <time>2019-12-04T15:29:19Z</time>
      </trkpt>
      <trkpt lat="43.57679" lon="6.11195">
        <ele>451.9</ele>
        <time>2019-12-04T15:29:29Z</time>
      </trkpt>
      <trkpt lat="43.5767" lon="6.11192">
        <ele>451.7</ele>
        <time>2019-12-04T15:29:38Z</time>
      </trkpt>
      <trkpt lat="43.57659" lon="6.11193">
        <ele>451.2</ele>
        <time>2019-12-04T15:29:46Z</time>
      </trkpt>
      <trkpt lat="43.5765" lon="6.1119">
        <ele>450.9</ele>
        <time>2019-12-04T15:29:54Z</time>
      </trkpt>
      <trkpt lat="43.5764" lon="6.11191">
        <ele>450.4</ele>
        <time>2019-12-04T15:30:01Z</time>
      </trkpt>
      <trkpt lat="43.57631" lon="6.11191">
        <ele>450.1</ele>
        <time>2019-12-04T15:30:06Z</time>
      </trkpt>
      <trkpt lat="43.57623" lon="6.11195">
        <ele>449.6</ele>
        <time>2019-12-04T15:30:12Z</time>
      </trkpt>
      <trkpt lat="43.57614" lon="6.11197">
        <ele>448.7</ele>
        <time>2019-12-04T15:30:20Z</time>
      </trkpt>
      <trkpt lat="43.57604" lon="6.11202">
        <ele>447.7</ele>
        <time>2019-12-04T15:30:27Z</time>
      </trkpt>
      <trkpt lat="43.57596" lon="6.11208">
        <ele>447.1</ele>
        <time>2019-12-04T15:30:34Z</time>
      </trkpt>
      <trkpt lat="43.57588" lon="6.11213">
        <ele>446.4</ele>
        <time>2019-12-04T15:30:43Z</time>
      </trkpt>
      <trkpt lat="43.57578" lon="6.11216">
        <ele>445.9</ele>
        <time>2019-12-04T15:30:53Z</time>
      </trkpt>
      <trkpt lat="43.57569" lon="6.11219">
        <ele>445.5</ele>
        <time>2019-12-04T15:31:03Z</time>
      </trkpt>
      <trkpt lat="43.57559" lon="6.11221">
        <ele>445.4</ele>
        <time>2019-12-04T15:31:13Z</time>
      </trkpt>
      <trkpt lat="43.5755" lon="6.11224">
        <ele>445</ele>
        <time>2019-12-04T15:31:19Z</time>
      </trkpt>
      <trkpt lat="43.57541" lon="6.11227">
        <ele>445.4</ele>
        <time>2019-12-04T15:31:26Z</time>
      </trkpt>
      <trkpt lat="43.57532" lon="6.1123">
        <ele>445.5</ele>
        <time>2019-12-04T15:31:35Z</time>
      </trkpt>
      <trkpt lat="43.57523" lon="6.11232">
        <ele>445.6</ele>
        <time>2019-12-04T15:31:42Z</time>
      </trkpt>
      <trkpt lat="43.57515" lon="6.11237">
        <ele>446.2</ele>
        <time>2019-12-04T15:32:06Z</time>
      </trkpt>
      <trkpt lat="43.57506" lon="6.11238">
        <ele>446.9</ele>
        <time>2019-12-04T15:32:56Z</time>
      </trkpt>
      <trkpt lat="43.57496" lon="6.11236">
        <ele>447.5</ele>
        <time>2019-12-04T15:33:08Z</time>
      </trkpt>
      <trkpt lat="43.57487" lon="6.11235">
        <ele>448.2</ele>
        <time>2019-12-04T15:33:18Z</time>
      </trkpt>
      <trkpt lat="43.57478" lon="6.11233">
        <ele>448.4</ele>
        <time>2019-12-04T15:33:25Z</time>
      </trkpt>
      <trkpt lat="43.57469" lon="6.11229">
        <ele>448.6</ele>
        <time>2019-12-04T15:33:32Z</time>
      </trkpt>
      <trkpt lat="43.57459" lon="6.11225">
        <ele>449</ele>
        <time>2019-12-04T15:33:42Z</time>
      </trkpt>
      <trkpt lat="43.57449" lon="6.11227">
        <ele>449.8</ele>
        <time>2019-12-04T15:33:51Z</time>
      </trkpt>
      <trkpt lat="43.5744" lon="6.11234">
        <ele>450.5</ele>
        <time>2019-12-04T15:33:59Z</time>
      </trkpt>
      <trkpt lat="43.57432" lon="6.11241">
        <ele>451.1</ele>
        <time>2019-12-04T15:34:10Z</time>
      </trkpt>
      <trkpt lat="43.57423" lon="6.11241">
        <ele>451.8</ele>
        <time>2019-12-04T15:34:20Z</time>
      </trkpt>
      <trkpt lat="43.57414" lon="6.11246">
        <ele>452</ele>
        <time>2019-12-04T15:34:31Z</time>
      </trkpt>
      <trkpt lat="43.57404" lon="6.11248">
        <ele>453</ele>
        <time>2019-12-04T15:34:38Z</time>
      </trkpt>
      <trkpt lat="43.57395" lon="6.11244">
        <ele>453.9</ele>
        <time>2019-12-04T15:34:51Z</time>
      </trkpt>
      <trkpt lat="43.57386" lon="6.11248">
        <ele>454.3</ele>
        <time>2019-12-04T15:34:58Z</time>
      </trkpt>
      <trkpt lat="43.57377" lon="6.11251">
        <ele>454.9</ele>
        <time>2019-12-04T15:35:08Z</time>
      </trkpt>
      <trkpt lat="43.57368" lon="6.11254">
        <ele>455.2</ele>
        <time>2019-12-04T15:35:17Z</time>
      </trkpt>
      <trkpt lat="43.57359" lon="6.11255">
        <ele>455.5</ele>
        <time>2019-12-04T15:35:25Z</time>
      </trkpt>
      <trkpt lat="43.5735" lon="6.11261">
        <ele>456</ele>
        <time>2019-12-04T15:35:39Z</time>
      </trkpt>
      <trkpt lat="43.57339" lon="6.11263">
        <ele>456</ele>
        <time>2019-12-04T15:35:49Z</time>
      </trkpt>
      <trkpt lat="43.5733" lon="6.11266">
        <ele>456.8</ele>
        <time>2019-12-04T15:36:00Z</time>
      </trkpt>
      <trkpt lat="43.5732" lon="6.11269">
        <ele>457.3</ele>
        <time>2019-12-04T15:36:10Z</time>
      </trkpt>
      <trkpt lat="43.57311" lon="6.11274">
        <ele>458.1</ele>
        <time>2019-12-04T15:36:21Z</time>
      </trkpt>
      <trkpt lat="43.57302" lon="6.11276">
        <ele>458.2</ele>
        <time>2019-12-04T15:36:30Z</time>
      </trkpt>
      <trkpt lat="43.57292" lon="6.11279">
        <ele>458.4</ele>
        <time>2019-12-04T15:36:40Z</time>
      </trkpt>
      <trkpt lat="43.57282" lon="6.11276">
        <ele>459.3</ele>
        <time>2019-12-04T15:36:50Z</time>
      </trkpt>
      <trkpt lat="43.57274" lon="6.11282">
        <ele>459.8</ele>
        <time>2019-12-04T15:36:57Z</time>
      </trkpt>
      <trkpt lat="43.57264" lon="6.11282">
        <ele>460.2</ele>
        <time>2019-12-04T15:37:06Z</time>
      </trkpt>
      <trkpt lat="43.57256" lon="6.11287">
        <ele>460.4</ele>
        <time>2019-12-04T15:37:14Z</time>
      </trkpt>
      <trkpt lat="43.57247" lon="6.11286">
        <ele>461.4</ele>
        <time>2019-12-04T15:37:29Z</time>
      </trkpt>
      <trkpt lat="43.57238" lon="6.11292">
        <ele>462.2</ele>
        <time>2019-12-04T15:37:39Z</time>
      </trkpt>
      <trkpt lat="43.57229" lon="6.1129">
        <ele>462.9</ele>
        <time>2019-12-04T15:37:51Z</time>
      </trkpt>
      <trkpt lat="43.5722" lon="6.11286">
        <ele>463.5</ele>
        <time>2019-12-04T15:37:59Z</time>
      </trkpt>
      <trkpt lat="43.57211" lon="6.11286">
        <ele>464.8</ele>
        <time>2019-12-04T15:38:10Z</time>
      </trkpt>
      <trkpt lat="43.57202" lon="6.11286">
        <ele>465.6</ele>
        <time>2019-12-04T15:38:21Z</time>
      </trkpt>
      <trkpt lat="43.57194" lon="6.1128">
        <ele>468.9</ele>
        <time>2019-12-04T15:40:07Z</time>
      </trkpt>
      <trkpt lat="43.57184" lon="6.11273">
        <ele>468</ele>
        <time>2019-12-04T15:40:18Z</time>
      </trkpt>
      <trkpt lat="43.57175" lon="6.11269">
        <ele>468.9</ele>
        <time>2019-12-04T15:40:24Z</time>
      </trkpt>
      <trkpt lat="43.57166" lon="6.11264">
        <ele>469</ele>
        <time>2019-12-04T15:40:31Z</time>
      </trkpt>
      <trkpt lat="43.57161" lon="6.11252">
        <ele>469.2</ele>
        <time>2019-12-04T15:40:41Z</time>
      </trkpt>
      <trkpt lat="43.57157" lon="6.1124">
        <ele>469.3</ele>
        <time>2019-12-04T15:40:50Z</time>
      </trkpt>
      <trkpt lat="43.57151" lon="6.11229">
        <ele>469.2</ele>
        <time>2019-12-04T15:40:58Z</time>
      </trkpt>
      <trkpt lat="43.57142" lon="6.11225">
        <ele>469.3</ele>
        <time>2019-12-04T15:41:07Z</time>
      </trkpt>
      <trkpt lat="43.57135" lon="6.11216">
        <ele>469.4</ele>
        <time>2019-12-04T15:41:17Z</time>
      </trkpt>
      <trkpt lat="43.57134" lon="6.11202">
        <ele>469.5</ele>
        <time>2019-12-04T15:41:27Z</time>
      </trkpt>
      <trkpt lat="43.57138" lon="6.1119">
        <ele>469.6</ele>
        <time>2019-12-04T15:41:36Z</time>
      </trkpt>
      <trkpt lat="43.5714" lon="6.11177">
        <ele>469.9</ele>
        <time>2019-12-04T15:41:43Z</time>
      </trkpt>
      <trkpt lat="43.57139" lon="6.11164">
        <ele>470.1</ele>
        <time>2019-12-04T15:41:52Z</time>
      </trkpt>
      <trkpt lat="43.57136" lon="6.11151">
        <ele>470.5</ele>
        <time>2019-12-04T15:42:02Z</time>
      </trkpt>
      <trkpt lat="43.57137" lon="6.11138">
        <ele>471</ele>
        <time>2019-12-04T15:42:12Z</time>
      </trkpt>
      <trkpt lat="43.57137" lon="6.11124">
        <ele>471.3</ele>
        <time>2019-12-04T15:42:23Z</time>
      </trkpt>
      <trkpt lat="43.57137" lon="6.11111">
        <ele>471.4</ele>
        <time>2019-12-04T15:42:35Z</time>
      </trkpt>
      <trkpt lat="43.57142" lon="6.111">
        <ele>471.4</ele>
        <time>2019-12-04T15:42:43Z</time>
      </trkpt>
      <trkpt lat="43.57142" lon="6.11087">
        <ele>471.4</ele>
        <time>2019-12-04T15:42:51Z</time>
      </trkpt>
      <trkpt lat="43.57142" lon="6.11074">
        <ele>471.6</ele>
        <time>2019-12-04T15:42:59Z</time>
      </trkpt>
      <trkpt lat="43.57145" lon="6.11062">
        <ele>471.7</ele>
        <time>2019-12-04T15:43:06Z</time>
      </trkpt>
      <trkpt lat="43.57141" lon="6.1105">
        <ele>471.7</ele>
        <time>2019-12-04T15:43:14Z</time>
      </trkpt>
      <trkpt lat="43.57138" lon="6.11037">
        <ele>471.5</ele>
        <time>2019-12-04T15:43:22Z</time>
      </trkpt>
      <trkpt lat="43.57141" lon="6.11024">
        <ele>471.3</ele>
        <time>2019-12-04T15:43:30Z</time>
      </trkpt>
      <trkpt lat="43.57138" lon="6.11012">
        <ele>471</ele>
        <time>2019-12-04T15:43:38Z</time>
      </trkpt>
      <trkpt lat="43.57134" lon="6.11">
        <ele>470.4</ele>
        <time>2019-12-04T15:43:48Z</time>
      </trkpt>
      <trkpt lat="43.57127" lon="6.1099">
        <ele>470.2</ele>
        <time>2019-12-04T15:43:57Z</time>
      </trkpt>
      <trkpt lat="43.57121" lon="6.10981">
        <ele>470.4</ele>
        <time>2019-12-04T15:44:06Z</time>
      </trkpt>
      <trkpt lat="43.57114" lon="6.1097">
        <ele>470.9</ele>
        <time>2019-12-04T15:44:16Z</time>
      </trkpt>
      <trkpt lat="43.57111" lon="6.10959">
        <ele>470.9</ele>
        <time>2019-12-04T15:44:24Z</time>
      </trkpt>
      <trkpt lat="43.57108" lon="6.10946">
        <ele>470.7</ele>
        <time>2019-12-04T15:44:32Z</time>
      </trkpt>
      <trkpt lat="43.57102" lon="6.10936">
        <ele>470.7</ele>
        <time>2019-12-04T15:44:39Z</time>
      </trkpt>
      <trkpt lat="43.57093" lon="6.1093">
        <ele>471</ele>
        <time>2019-12-04T15:44:48Z</time>
      </trkpt>
      <trkpt lat="43.57086" lon="6.10922">
        <ele>471.3</ele>
        <time>2019-12-04T15:44:53Z</time>
      </trkpt>
      <trkpt lat="43.57083" lon="6.1091">
        <ele>471.7</ele>
        <time>2019-12-04T15:45:03Z</time>
      </trkpt>
      <trkpt lat="43.57074" lon="6.10904">
        <ele>472</ele>
        <time>2019-12-04T15:45:10Z</time>
      </trkpt>
      <trkpt lat="43.57072" lon="6.1089">
        <ele>472.7</ele>
        <time>2019-12-04T15:45:20Z</time>
      </trkpt>
      <trkpt lat="43.57064" lon="6.10882">
        <ele>472.9</ele>
        <time>2019-12-04T15:45:27Z</time>
      </trkpt>
      <trkpt lat="43.57073" lon="6.10879">
        <ele>474.2</ele>
        <time>2019-12-04T15:47:28Z</time>
      </trkpt>
      <trkpt lat="43.57064" lon="6.10882">
        <ele>474.2</ele>
        <time>2019-12-04T15:47:48Z</time>
      </trkpt>
      <trkpt lat="43.57067" lon="6.1087">
        <ele>473.9</ele>
        <time>2019-12-04T15:50:15Z</time>
      </trkpt>
      <trkpt lat="43.57076" lon="6.10875">
        <ele>473.9</ele>
        <time>2019-12-04T15:50:34Z</time>
      </trkpt>
      <trkpt lat="43.57086" lon="6.10876">
        <ele>473.6</ele>
        <time>2019-12-04T15:51:16Z</time>
      </trkpt>
      <trkpt lat="43.57076" lon="6.10874">
        <ele>473.5</ele>
        <time>2019-12-04T15:51:35Z</time>
      </trkpt>
      <trkpt lat="43.57065" lon="6.10872">
        <ele>473.4</ele>
        <time>2019-12-04T15:51:53Z</time>
      </trkpt>
      <trkpt lat="43.57056" lon="6.10872">
        <ele>473.7</ele>
        <time>2019-12-04T15:52:59Z</time>
      </trkpt>
      <trkpt lat="43.57047" lon="6.10866">
        <ele>474</ele>
        <time>2019-12-04T15:53:12Z</time>
      </trkpt>
      <trkpt lat="43.57056" lon="6.1087">
        <ele>474.4</ele>
        <time>2019-12-04T15:53:31Z</time>
      </trkpt>
      <trkpt lat="43.57064" lon="6.10877">
        <ele>474.4</ele>
        <time>2019-12-04T15:53:59Z</time>
      </trkpt>
      <trkpt lat="43.57073" lon="6.10882">
        <ele>474.1</ele>
        <time>2019-12-04T15:54:09Z</time>
      </trkpt>
      <trkpt lat="43.57065" lon="6.10889">
        <ele>473.9</ele>
        <time>2019-12-04T15:54:52Z</time>
      </trkpt>
      <trkpt lat="43.57057" lon="6.10894">
        <ele>473</ele>
        <time>2019-12-04T15:55:39Z</time>
      </trkpt>
      <trkpt lat="43.57065" lon="6.10889">
        <ele>473.3</ele>
        <time>2019-12-04T15:56:11Z</time>
      </trkpt>
      <trkpt lat="43.57075" lon="6.1089">
        <ele>473</ele>
        <time>2019-12-04T15:56:31Z</time>
      </trkpt>
      <trkpt lat="43.57083" lon="6.10884">
        <ele>472.9</ele>
        <time>2019-12-04T15:56:40Z</time>
      </trkpt>
      <trkpt lat="43.5709" lon="6.10876">
        <ele>472.5</ele>
        <time>2019-12-04T15:56:48Z</time>
      </trkpt>
      <trkpt lat="43.57097" lon="6.10865">
        <ele>472.2</ele>
        <time>2019-12-04T15:56:57Z</time>
      </trkpt>
      <trkpt lat="43.57106" lon="6.10859">
        <ele>471.8</ele>
        <time>2019-12-04T15:57:07Z</time>
      </trkpt>
      <trkpt lat="43.57116" lon="6.10856">
        <ele>471.3</ele>
        <time>2019-12-04T15:57:19Z</time>
      </trkpt>
      <trkpt lat="43.57125" lon="6.10854">
        <ele>470.9</ele>
        <time>2019-12-04T15:57:30Z</time>
      </trkpt>
      <trkpt lat="43.57134" lon="6.10855">
        <ele>470.6</ele>
        <time>2019-12-04T15:57:40Z</time>
      </trkpt>
      <trkpt lat="43.57143" lon="6.10853">
        <ele>470.1</ele>
        <time>2019-12-04T15:57:47Z</time>
      </trkpt>
      <trkpt lat="43.57152" lon="6.10852">
        <ele>469.3</ele>
        <time>2019-12-04T15:57:58Z</time>
      </trkpt>
      <trkpt lat="43.57161" lon="6.10844">
        <ele>468.9</ele>
        <time>2019-12-04T15:58:05Z</time>
      </trkpt>
      <trkpt lat="43.5717" lon="6.10842">
        <ele>468.1</ele>
        <time>2019-12-04T15:58:12Z</time>
      </trkpt>
      <trkpt lat="43.57179" lon="6.10839">
        <ele>467.2</ele>
        <time>2019-12-04T15:58:21Z</time>
      </trkpt>
      <trkpt lat="43.57188" lon="6.10836">
        <ele>466.2</ele>
        <time>2019-12-04T15:58:31Z</time>
      </trkpt>
      <trkpt lat="43.57197" lon="6.10835">
        <ele>465.6</ele>
        <time>2019-12-04T15:58:39Z</time>
      </trkpt>
      <trkpt lat="43.57206" lon="6.10831">
        <ele>465</ele>
        <time>2019-12-04T15:58:47Z</time>
      </trkpt>
      <trkpt lat="43.57215" lon="6.10828">
        <ele>464.6</ele>
        <time>2019-12-04T15:58:56Z</time>
      </trkpt>
      <trkpt lat="43.57224" lon="6.10828">
        <ele>464.3</ele>
        <time>2019-12-04T15:59:05Z</time>
      </trkpt>
      <trkpt lat="43.57235" lon="6.10827">
        <ele>464.1</ele>
        <time>2019-12-04T15:59:14Z</time>
      </trkpt>
      <trkpt lat="43.57244" lon="6.10825">
        <ele>463.8</ele>
        <time>2019-12-04T15:59:22Z</time>
      </trkpt>
      <trkpt lat="43.57254" lon="6.10823">
        <ele>463.5</ele>
        <time>2019-12-04T15:59:30Z</time>
      </trkpt>
      <trkpt lat="43.57263" lon="6.10821">
        <ele>463.2</ele>
        <time>2019-12-04T15:59:41Z</time>
      </trkpt>
      <trkpt lat="43.57272" lon="6.10818">
        <ele>462.5</ele>
        <time>2019-12-04T15:59:50Z</time>
      </trkpt>
      <trkpt lat="43.57281" lon="6.10814">
        <ele>462.1</ele>
        <time>2019-12-04T15:59:57Z</time>
      </trkpt>
      <trkpt lat="43.5729" lon="6.10812">
        <ele>461.6</ele>
        <time>2019-12-04T16:00:04Z</time>
      </trkpt>
      <trkpt lat="43.57299" lon="6.1081">
        <ele>460.8</ele>
        <time>2019-12-04T16:00:13Z</time>
      </trkpt>
      <trkpt lat="43.57309" lon="6.10808">
        <ele>460</ele>
        <time>2019-12-04T16:00:20Z</time>
      </trkpt>
      <trkpt lat="43.57318" lon="6.10808">
        <ele>458.9</ele>
        <time>2019-12-04T16:00:31Z</time>
      </trkpt>
      <trkpt lat="43.57328" lon="6.10808">
        <ele>457.9</ele>
        <time>2019-12-04T16:00:40Z</time>
      </trkpt>
      <trkpt lat="43.57337" lon="6.10812">
        <ele>456</ele>
        <time>2019-12-04T16:00:54Z</time>
      </trkpt>
      <trkpt lat="43.57346" lon="6.10807">
        <ele>455</ele>
        <time>2019-12-04T16:01:02Z</time>
      </trkpt>
      <trkpt lat="43.57355" lon="6.10804">
        <ele>453.9</ele>
        <time>2019-12-04T16:01:10Z</time>
      </trkpt>
      <trkpt lat="43.57364" lon="6.10802">
        <ele>452.7</ele>
        <time>2019-12-04T16:01:21Z</time>
      </trkpt>
      <trkpt lat="43.57374" lon="6.10797">
        <ele>451</ele>
        <time>2019-12-04T16:01:32Z</time>
      </trkpt>
      <trkpt lat="43.57382" lon="6.10792">
        <ele>449.6</ele>
        <time>2019-12-04T16:01:42Z</time>
      </trkpt>
      <trkpt lat="43.57391" lon="6.10787">
        <ele>448.2</ele>
        <time>2019-12-04T16:01:55Z</time>
      </trkpt>
      <trkpt lat="43.57399" lon="6.10781">
        <ele>447.4</ele>
        <time>2019-12-04T16:02:03Z</time>
      </trkpt>
      <trkpt lat="43.57408" lon="6.10776">
        <ele>445.9</ele>
        <time>2019-12-04T16:02:15Z</time>
      </trkpt>
      <trkpt lat="43.57415" lon="6.10769">
        <ele>445</ele>
        <time>2019-12-04T16:02:25Z</time>
      </trkpt>
      <trkpt lat="43.57422" lon="6.10759">
        <ele>444.4</ele>
        <time>2019-12-04T16:02:35Z</time>
      </trkpt>
      <trkpt lat="43.57429" lon="6.1075">
        <ele>444.1</ele>
        <time>2019-12-04T16:02:43Z</time>
      </trkpt>
      <trkpt lat="43.57437" lon="6.10743">
        <ele>444</ele>
        <time>2019-12-04T16:02:52Z</time>
      </trkpt>
      <trkpt lat="43.57446" lon="6.10741">
        <ele>444.1</ele>
        <time>2019-12-04T16:03:02Z</time>
      </trkpt>
      <trkpt lat="43.57456" lon="6.10737">
        <ele>444.2</ele>
        <time>2019-12-04T16:03:11Z</time>
      </trkpt>
      <trkpt lat="43.57466" lon="6.10736">
        <ele>444.3</ele>
        <time>2019-12-04T16:03:19Z</time>
      </trkpt>
      <trkpt lat="43.57476" lon="6.10739">
        <ele>444.5</ele>
        <time>2019-12-04T16:03:28Z</time>
      </trkpt>
      <trkpt lat="43.57486" lon="6.10741">
        <ele>444.7</ele>
        <time>2019-12-04T16:03:37Z</time>
      </trkpt>
      <trkpt lat="43.57495" lon="6.10741">
        <ele>445</ele>
        <time>2019-12-04T16:03:45Z</time>
      </trkpt>
      <trkpt lat="43.57504" lon="6.10736">
        <ele>445.2</ele>
        <time>2019-12-04T16:03:54Z</time>
      </trkpt>
      <trkpt lat="43.57514" lon="6.10738">
        <ele>445.6</ele>
        <time>2019-12-04T16:04:05Z</time>
      </trkpt>
      <trkpt lat="43.57523" lon="6.10734">
        <ele>446.2</ele>
        <time>2019-12-04T16:04:18Z</time>
      </trkpt>
      <trkpt lat="43.57532" lon="6.10734">
        <ele>446.8</ele>
        <time>2019-12-04T16:04:30Z</time>
      </trkpt>
      <trkpt lat="43.57542" lon="6.10736">
        <ele>447.5</ele>
        <time>2019-12-04T16:04:42Z</time>
      </trkpt>
      <trkpt lat="43.57551" lon="6.10733">
        <ele>448.2</ele>
        <time>2019-12-04T16:04:52Z</time>
      </trkpt>
      <trkpt lat="43.5756" lon="6.1073">
        <ele>449.2</ele>
        <time>2019-12-04T16:05:03Z</time>
      </trkpt>
      <trkpt lat="43.57569" lon="6.10723">
        <ele>449.9</ele>
        <time>2019-12-04T16:05:15Z</time>
      </trkpt>
      <trkpt lat="43.57578" lon="6.10718">
        <ele>450.4</ele>
        <time>2019-12-04T16:05:23Z</time>
      </trkpt>
      <trkpt lat="43.57586" lon="6.10711">
        <ele>450.8</ele>
        <time>2019-12-04T16:05:29Z</time>
      </trkpt>
      <trkpt lat="43.57594" lon="6.10706">
        <ele>451.2</ele>
        <time>2019-12-04T16:05:37Z</time>
      </trkpt>
      <trkpt lat="43.57602" lon="6.10702">
        <ele>451.9</ele>
        <time>2019-12-04T16:05:46Z</time>
      </trkpt>
      <trkpt lat="43.57612" lon="6.10702">
        <ele>452.7</ele>
        <time>2019-12-04T16:05:58Z</time>
      </trkpt>
      <trkpt lat="43.57622" lon="6.10701">
        <ele>453.4</ele>
        <time>2019-12-04T16:06:11Z</time>
      </trkpt>
      <trkpt lat="43.57631" lon="6.10702">
        <ele>454</ele>
        <time>2019-12-04T16:06:22Z</time>
      </trkpt>
      <trkpt lat="43.5764" lon="6.10699">
        <ele>454.6</ele>
        <time>2019-12-04T16:06:31Z</time>
      </trkpt>
      <trkpt lat="43.57649" lon="6.10697">
        <ele>454.9</ele>
        <time>2019-12-04T16:06:37Z</time>
      </trkpt>
      <trkpt lat="43.57658" lon="6.10693">
        <ele>455.2</ele>
        <time>2019-12-04T16:06:46Z</time>
      </trkpt>
      <trkpt lat="43.57668" lon="6.10689">
        <ele>455.5</ele>
        <time>2019-12-04T16:06:57Z</time>
      </trkpt>
      <trkpt lat="43.57677" lon="6.10687">
        <ele>455.8</ele>
        <time>2019-12-04T16:07:07Z</time>
      </trkpt>
      <trkpt lat="43.57686" lon="6.10684">
        <ele>456.2</ele>
        <time>2019-12-04T16:07:17Z</time>
      </trkpt>
      <trkpt lat="43.57694" lon="6.10677">
        <ele>456.5</ele>
        <time>2019-12-04T16:07:24Z</time>
      </trkpt>
      <trkpt lat="43.57703" lon="6.10673">
        <ele>456.8</ele>
        <time>2019-12-04T16:07:33Z</time>
      </trkpt>
      <trkpt lat="43.57711" lon="6.10669">
        <ele>457</ele>
        <time>2019-12-04T16:07:39Z</time>
      </trkpt>
      <trkpt lat="43.5772" lon="6.10666">
        <ele>457.3</ele>
        <time>2019-12-04T16:07:47Z</time>
      </trkpt>
      <trkpt lat="43.5773" lon="6.10664">
        <ele>458</ele>
        <time>2019-12-04T16:07:58Z</time>
      </trkpt>
      <trkpt lat="43.57738" lon="6.10656">
        <ele>458.6</ele>
        <time>2019-12-04T16:08:08Z</time>
      </trkpt>
      <trkpt lat="43.57747" lon="6.10652">
        <ele>458.9</ele>
        <time>2019-12-04T16:08:16Z</time>
      </trkpt>
      <trkpt lat="43.57757" lon="6.10652">
        <ele>459</ele>
        <time>2019-12-04T16:08:29Z</time>
      </trkpt>
      <trkpt lat="43.57766" lon="6.1065">
        <ele>459.3</ele>
        <time>2019-12-04T16:08:37Z</time>
      </trkpt>
      <trkpt lat="43.57775" lon="6.10645">
        <ele>459.8</ele>
        <time>2019-12-04T16:08:47Z</time>
      </trkpt>
      <trkpt lat="43.57785" lon="6.10643">
        <ele>460.2</ele>
        <time>2019-12-04T16:08:58Z</time>
      </trkpt>
      <trkpt lat="43.57794" lon="6.1064">
        <ele>460.2</ele>
        <time>2019-12-04T16:09:09Z</time>
      </trkpt>
      <trkpt lat="43.57804" lon="6.10638">
        <ele>460.2</ele>
        <time>2019-12-04T16:09:17Z</time>
      </trkpt>
      <trkpt lat="43.57814" lon="6.10636">
        <ele>460.3</ele>
        <time>2019-12-04T16:09:25Z</time>
      </trkpt>
      <trkpt lat="43.57823" lon="6.10632">
        <ele>460.6</ele>
        <time>2019-12-04T16:09:31Z</time>
      </trkpt>
      <trkpt lat="43.57832" lon="6.10631">
        <ele>460.8</ele>
        <time>2019-12-04T16:09:39Z</time>
      </trkpt>
      <trkpt lat="43.57841" lon="6.1063">
        <ele>460.7</ele>
        <time>2019-12-04T16:09:48Z</time>
      </trkpt>
      <trkpt lat="43.5785" lon="6.10627">
        <ele>460.7</ele>
        <time>2019-12-04T16:09:55Z</time>
      </trkpt>
      <trkpt lat="43.5786" lon="6.10626">
        <ele>460.6</ele>
        <time>2019-12-04T16:10:04Z</time>
      </trkpt>
      <trkpt lat="43.5787" lon="6.10622">
        <ele>460.7</ele>
        <time>2019-12-04T16:10:11Z</time>
      </trkpt>
      <trkpt lat="43.57879" lon="6.1062">
        <ele>460.8</ele>
        <time>2019-12-04T16:10:19Z</time>
      </trkpt>
      <trkpt lat="43.57889" lon="6.10618">
        <ele>460.9</ele>
        <time>2019-12-04T16:10:29Z</time>
      </trkpt>
      <trkpt lat="43.57899" lon="6.10615">
        <ele>460.9</ele>
        <time>2019-12-04T16:10:36Z</time>
      </trkpt>
      <trkpt lat="43.57908" lon="6.10609">
        <ele>460.9</ele>
        <time>2019-12-04T16:10:43Z</time>
      </trkpt>
      <trkpt lat="43.57916" lon="6.10604">
        <ele>460.9</ele>
        <time>2019-12-04T16:10:51Z</time>
      </trkpt>
      <trkpt lat="43.57925" lon="6.10602">
        <ele>460.9</ele>
        <time>2019-12-04T16:10:58Z</time>
      </trkpt>
      <trkpt lat="43.57935" lon="6.106">
        <ele>460.9</ele>
        <time>2019-12-04T16:11:07Z</time>
      </trkpt>
      <trkpt lat="43.57945" lon="6.10596">
        <ele>461</ele>
        <time>2019-12-04T16:11:13Z</time>
      </trkpt>
      <trkpt lat="43.57954" lon="6.10594">
        <ele>461.1</ele>
        <time>2019-12-04T16:11:21Z</time>
      </trkpt>
      <trkpt lat="43.57963" lon="6.10589">
        <ele>461.2</ele>
        <time>2019-12-04T16:11:30Z</time>
      </trkpt>
      <trkpt lat="43.57972" lon="6.10585">
        <ele>461.3</ele>
        <time>2019-12-04T16:11:38Z</time>
      </trkpt>
      <trkpt lat="43.57982" lon="6.10581">
        <ele>461.4</ele>
        <time>2019-12-04T16:11:46Z</time>
      </trkpt>
      <trkpt lat="43.57992" lon="6.10577">
        <ele>461.5</ele>
        <time>2019-12-04T16:11:54Z</time>
      </trkpt>
      <trkpt lat="43.58001" lon="6.10575">
        <ele>461.6</ele>
        <time>2019-12-04T16:12:03Z</time>
      </trkpt>
      <trkpt lat="43.5801" lon="6.10572">
        <ele>461.7</ele>
        <time>2019-12-04T16:12:11Z</time>
      </trkpt>
      <trkpt lat="43.5802" lon="6.10576">
        <ele>462.1</ele>
        <time>2019-12-04T16:12:21Z</time>
      </trkpt>
      <trkpt lat="43.58029" lon="6.1058">
        <ele>462.6</ele>
        <time>2019-12-04T16:12:30Z</time>
      </trkpt>
      <trkpt lat="43.58038" lon="6.10582">
        <ele>463</ele>
        <time>2019-12-04T16:12:38Z</time>
      </trkpt>
      <trkpt lat="43.58047" lon="6.10581">
        <ele>463.3</ele>
        <time>2019-12-04T16:12:50Z</time>
      </trkpt>
      <trkpt lat="43.58052" lon="6.10571">
        <ele>463.6</ele>
        <time>2019-12-04T16:13:20Z</time>
      </trkpt>
      <trkpt lat="43.58062" lon="6.10568">
        <ele>464</ele>
        <time>2019-12-04T16:14:21Z</time>
      </trkpt>
      <trkpt lat="43.5807" lon="6.10562">
        <ele>465.1</ele>
        <time>2019-12-04T16:15:45Z</time>
      </trkpt>
      <trkpt lat="43.58062" lon="6.10555">
        <ele>464.5</ele>
        <time>2019-12-04T16:18:34Z</time>
      </trkpt>
      <trkpt lat="43.58073" lon="6.10557">
        <ele>463.8</ele>
        <time>2019-12-04T16:19:17Z</time>
      </trkpt>
    </trkseg>
  </trk>
</gpx>